<?xml version='1.0' encoding='UTF-8'?><gpx version="1.1" creator="JPX - https://github.com/jenetics/jpx" xmlns="http://www.topografix.com/GPX/1/1"><trk><trkseg><trkpt lat="53.76469638577222" lon="11.097862043384797"><ele>50.00000000000001</ele><time>2026-04-01T14:03:03.886Z</time></trkpt><trkpt lat="53.76468127983608" lon="11.09773360149779"><ele>50.0</ele><time>2026-04-01T14:04:20.885Z</time></trkpt><trkpt lat="53.764742816171406" lon="11.097624773163137"><ele>50.0</ele><time>2026-04-01T14:04:23.885Z</time></trkpt><trkpt lat="53.76486055720379" lon="11.097660957519462"><ele>50.0</ele><time>2026-04-01T14:04:25.885Z</time></trkpt><trkpt lat="53.76492318435602" lon="11.097680377450628"><ele>50.00000000000001</ele><time>2026-04-01T14:04:26.885Z</time></trkpt><trkpt lat="53.764986577948335" lon="11.097687674484288"><ele>50.0</ele><time>2026-04-01T14:04:27.885Z</time></trkpt><trkpt lat="53.76505033459035" lon="11.097693640549988"><ele>50.0</ele><time>2026-04-01T14:04:28.885Z</time></trkpt><trkpt lat="53.765113765010035" lon="11.097690907136462"><ele>50.0</ele><time>2026-04-01T14:04:29.885Z</time></trkpt><trkpt lat="53.76522448330788" lon="11.097712348374596"><ele>50.0</ele><time>2026-04-01T14:04:31.885Z</time></trkpt><trkpt lat="53.76535326044263" lon="11.097695742777338"><ele>50.0</ele><time>2026-04-01T14:04:33.885Z</time></trkpt><trkpt lat="53.76541599021306" lon="11.09767292904634"><ele>50.0</ele><time>2026-04-01T14:04:34.885Z</time></trkpt><trkpt lat="53.76549912457279" lon="11.097612954654211"><ele>49.4</ele><time>2026-04-01T14:04:35.885Z</time></trkpt><trkpt lat="53.76553040853052" lon="11.097440378951655"><ele>48.8</ele><time>2026-04-01T14:04:36.885Z</time></trkpt><trkpt lat="53.76549708311904" lon="11.097272891656832"><ele>48.2</ele><time>2026-04-01T14:04:37.885Z</time></trkpt><trkpt lat="53.765462064092105" lon="11.097090897397498"><ele>47.6</ele><time>2026-04-01T14:04:38.885Z</time></trkpt><trkpt lat="53.76542457825948" lon="11.096917946141419"><ele>47.0</ele><time>2026-04-01T14:04:39.885Z</time></trkpt><trkpt lat="53.76539544261703" lon="11.096743933750588"><ele>47.0</ele><time>2026-04-01T14:04:40.885Z</time></trkpt><trkpt lat="53.76537459633403" lon="11.096578502571044"><ele>47.0</ele><time>2026-04-01T14:04:41.885Z</time></trkpt><trkpt lat="53.7653368967081" lon="11.096449225217079"><ele>47.0</ele><time>2026-04-01T14:04:42.885Z</time></trkpt><trkpt lat="53.76526000454054" lon="11.096369232450746"><ele>47.0</ele><time>2026-04-01T14:04:43.885Z</time></trkpt><trkpt lat="53.765157870944556" lon="11.096330994332607"><ele>47.0</ele><time>2026-04-01T14:04:44.885Z</time></trkpt><trkpt lat="53.765043509084116" lon="11.09633588707138"><ele>47.33333333333333</ele><time>2026-04-01T14:04:45.885Z</time></trkpt><trkpt lat="53.76493274830844" lon="11.096300463445294"><ele>47.666666666666664</ele><time>2026-04-01T14:04:46.885Z</time></trkpt><trkpt lat="53.76483083149869" lon="11.096286796105884"><ele>48.0</ele><time>2026-04-01T14:04:47.885Z</time></trkpt><trkpt lat="53.76474700269344" lon="11.096272868899312"><ele>48.33333333333333</ele><time>2026-04-01T14:04:48.885Z</time></trkpt><trkpt lat="53.76467754481786" lon="11.096254775691712"><ele>48.666666666666664</ele><time>2026-04-01T14:04:49.885Z</time></trkpt><trkpt lat="53.764605278952295" lon="11.096219137023205"><ele>49.0</ele><time>2026-04-01T14:04:51.885Z</time></trkpt><trkpt lat="53.76462755488601" lon="11.096087948930071"><ele>49.0</ele><time>2026-04-01T14:04:53.885Z</time></trkpt><trkpt lat="53.76467516081385" lon="11.095995806826592"><ele>49.0</ele><time>2026-04-01T14:04:54.885Z</time></trkpt><trkpt lat="53.76473126583585" lon="11.095907401033068"><ele>49.0</ele><time>2026-04-01T14:04:55.885Z</time></trkpt><trkpt lat="53.764795863643705" lon="11.095800854043004"><ele>49.0</ele><time>2026-04-01T14:04:56.885Z</time></trkpt><trkpt lat="53.76488740404973" lon="11.095724866245707"><ele>49.0</ele><time>2026-04-01T14:04:57.885Z</time></trkpt><trkpt lat="53.76497391691267" lon="11.095603642376814"><ele>48.6</ele><time>2026-04-01T14:04:58.885Z</time></trkpt><trkpt lat="53.76507881459483" lon="11.095502888354074"><ele>48.2</ele><time>2026-04-01T14:04:59.885Z</time></trkpt><trkpt lat="53.76517877679438" lon="11.095384294387948"><ele>47.800000000000004</ele><time>2026-04-01T14:05:00.885Z</time></trkpt><trkpt lat="53.76527147656585" lon="11.095275254008346"><ele>47.400000000000006</ele><time>2026-04-01T14:05:01.885Z</time></trkpt><trkpt lat="53.765340972065054" lon="11.09518732547167"><ele>47.0</ele><time>2026-04-01T14:05:02.885Z</time></trkpt><trkpt lat="53.76541074838555" lon="11.09511107702768"><ele>46.8</ele><time>2026-04-01T14:05:04.885Z</time></trkpt><trkpt lat="53.765496606100044" lon="11.095050346539653"><ele>46.6</ele><time>2026-04-01T14:05:12.884Z</time></trkpt><trkpt lat="53.765525279786594" lon="11.094899496022865"><ele>46.4</ele><time>2026-04-01T14:05:13.884Z</time></trkpt><trkpt lat="53.76552190239374" lon="11.094764966002346"><ele>46.199999999999996</ele><time>2026-04-01T14:05:14.884Z</time></trkpt><trkpt lat="53.76558508849497" lon="11.094625631702037"><ele>46.0</ele><time>2026-04-01T14:05:15.884Z</time></trkpt><trkpt lat="53.7656659476645" lon="11.094473771038475"><ele>46.0</ele><time>2026-04-01T14:05:16.884Z</time></trkpt><trkpt lat="53.76575705138621" lon="11.094301829218402"><ele>46.0</ele><time>2026-04-01T14:05:17.884Z</time></trkpt><trkpt lat="53.765852976597934" lon="11.094122882738409"><ele>46.0</ele><time>2026-04-01T14:05:18.884Z</time></trkpt><trkpt lat="53.76595642240663" lon="11.093945980880495"><ele>46.0</ele><time>2026-04-01T14:05:19.884Z</time></trkpt><trkpt lat="53.76606746130344" lon="11.093758187856857"><ele>45.0</ele><time>2026-04-01T14:05:20.884Z</time></trkpt><trkpt lat="53.76619939902315" lon="11.0935917278491"><ele>44.0</ele><time>2026-04-01T14:05:21.884Z</time></trkpt><trkpt lat="53.76632548411055" lon="11.093407555615949"><ele>43.0</ele><time>2026-04-01T14:05:22.884Z</time></trkpt><trkpt lat="53.766456013184936" lon="11.09320334279435"><ele>43.0</ele><time>2026-04-01T14:05:23.884Z</time></trkpt><trkpt lat="53.766603160267955" lon="11.092933640157119"><ele>43.0</ele><time>2026-04-01T14:05:24.884Z</time></trkpt><trkpt lat="53.76668306508228" lon="11.092582574299202"><ele>43.0</ele><time>2026-04-01T14:05:25.884Z</time></trkpt><trkpt lat="53.76672065580471" lon="11.092231795182753"><ele>42.66666666666667</ele><time>2026-04-01T14:05:26.884Z</time></trkpt><trkpt lat="53.76675872762097" lon="11.091935035317679"><ele>42.333333333333336</ele><time>2026-04-01T14:05:27.884Z</time></trkpt><trkpt lat="53.76680937545347" lon="11.091633216125635"><ele>42.0</ele><time>2026-04-01T14:05:28.884Z</time></trkpt><trkpt lat="53.76681836108821" lon="11.091285311517652"><ele>42.0</ele><time>2026-04-01T14:05:29.884Z</time></trkpt><trkpt lat="53.76683888992337" lon="11.091010003892825"><ele>42.0</ele><time>2026-04-01T14:05:30.884Z</time></trkpt><trkpt lat="53.766862785355016" lon="11.090716672407387"><ele>42.0</ele><time>2026-04-01T14:05:31.884Z</time></trkpt><trkpt lat="53.76688734620613" lon="11.090432482242559"><ele>40.333333333333336</ele><time>2026-04-01T14:05:32.884Z</time></trkpt><trkpt lat="53.76691459996096" lon="11.090136728652892"><ele>38.66666666666667</ele><time>2026-04-01T14:05:33.884Z</time></trkpt><trkpt lat="53.766938489834246" lon="11.089890853358382"><ele>37.0</ele><time>2026-04-01T14:05:34.884Z</time></trkpt><trkpt lat="53.76697256879703" lon="11.08957231397744"><ele>37.0</ele><time>2026-04-01T14:05:35.884Z</time></trkpt><trkpt lat="53.767013450833055" lon="11.089248742355267"><ele>37.0</ele><time>2026-04-01T14:05:36.884Z</time></trkpt><trkpt lat="53.76708301599774" lon="11.088907320100315"><ele>37.0</ele><time>2026-04-01T14:05:37.884Z</time></trkpt><trkpt lat="53.76719109819292" lon="11.088615025320289"><ele>37.333333333333336</ele><time>2026-04-01T14:05:38.884Z</time></trkpt><trkpt lat="53.767324354950674" lon="11.08839744100367"><ele>37.666666666666664</ele><time>2026-04-01T14:05:39.884Z</time></trkpt><trkpt lat="53.767466996122494" lon="11.088209015320356"><ele>38.0</ele><time>2026-04-01T14:05:40.884Z</time></trkpt><trkpt lat="53.767606963460814" lon="11.08803659527459"><ele>37.33333333333333</ele><time>2026-04-01T14:05:41.884Z</time></trkpt><trkpt lat="53.76775443163611" lon="11.087860919268069"><ele>36.666666666666664</ele><time>2026-04-01T14:05:42.884Z</time></trkpt><trkpt lat="53.76789979314441" lon="11.08767949021405"><ele>36.0</ele><time>2026-04-01T14:05:43.884Z</time></trkpt><trkpt lat="53.76805180662804" lon="11.087487052085336"><ele>36.333333333333336</ele><time>2026-04-01T14:05:44.884Z</time></trkpt><trkpt lat="53.76822028605593" lon="11.087273878886597"><ele>36.66666666666667</ele><time>2026-04-01T14:05:45.884Z</time></trkpt><trkpt lat="53.76837698888659" lon="11.087075813411246"><ele>37.0</ele><time>2026-04-01T14:05:46.884Z</time></trkpt><trkpt lat="53.76852603662919" lon="11.086887425054897"><ele>36.66666666666667</ele><time>2026-04-01T14:05:47.884Z</time></trkpt><trkpt lat="53.76868845381978" lon="11.086685576663289"><ele>36.333333333333336</ele><time>2026-04-01T14:05:48.884Z</time></trkpt><trkpt lat="53.7688469962611" lon="11.086490502898055"><ele>36.0</ele><time>2026-04-01T14:05:49.884Z</time></trkpt><trkpt lat="53.769001722833096" lon="11.086302650994075"><ele>36.0</ele><time>2026-04-01T14:05:50.884Z</time></trkpt><trkpt lat="53.76915617365984" lon="11.086119075239587"><ele>36.0</ele><time>2026-04-01T14:05:51.884Z</time></trkpt><trkpt lat="53.769300092248734" lon="11.085952873038806"><ele>36.0</ele><time>2026-04-01T14:05:52.884Z</time></trkpt><trkpt lat="53.76944590001256" lon="11.0857818739771"><ele>35.0</ele><time>2026-04-01T14:05:53.884Z</time></trkpt><trkpt lat="53.769590778209334" lon="11.085608308474148"><ele>34.0</ele><time>2026-04-01T14:05:54.884Z</time></trkpt><trkpt lat="53.769728110625216" lon="11.085443096252703"><ele>33.0</ele><time>2026-04-01T14:05:55.884Z</time></trkpt><trkpt lat="53.76987080389173" lon="11.085271424789028"><ele>33.0</ele><time>2026-04-01T14:05:56.884Z</time></trkpt><trkpt lat="53.77003104107553" lon="11.085078190576233"><ele>33.0</ele><time>2026-04-01T14:05:57.884Z</time></trkpt><trkpt lat="53.770190994381664" lon="11.084886109332704"><ele>33.0</ele><time>2026-04-01T14:05:58.884Z</time></trkpt><trkpt lat="53.77035876782289" lon="11.084686603856508"><ele>32.666666666666664</ele><time>2026-04-01T14:05:59.884Z</time></trkpt><trkpt lat="53.77051170807734" lon="11.084504737173473"><ele>32.33333333333333</ele><time>2026-04-01T14:06:00.884Z</time></trkpt><trkpt lat="53.77067443238407" lon="11.084311236042703"><ele>32.0</ele><time>2026-04-01T14:06:01.884Z</time></trkpt><trkpt lat="53.77083170987489" lon="11.084121964222325"><ele>32.33333333333333</ele><time>2026-04-01T14:06:02.884Z</time></trkpt><trkpt lat="53.77099277280929" lon="11.083920293566106"><ele>32.666666666666664</ele><time>2026-04-01T14:06:03.884Z</time></trkpt><trkpt lat="53.77114438832561" lon="11.083709769771353"><ele>33.0</ele><time>2026-04-01T14:06:04.884Z</time></trkpt><trkpt lat="53.77126913124553" lon="11.08350007955548"><ele>32.333333333333336</ele><time>2026-04-01T14:06:05.884Z</time></trkpt><trkpt lat="53.771374451482345" lon="11.083268544203657"><ele>31.666666666666668</ele><time>2026-04-01T14:06:06.884Z</time></trkpt><trkpt lat="53.771457560607324" lon="11.083030511003134"><ele>31.0</ele><time>2026-04-01T14:06:07.884Z</time></trkpt><trkpt lat="53.77155387576315" lon="11.082735508884264"><ele>31.0</ele><time>2026-04-01T14:06:08.884Z</time></trkpt><trkpt lat="53.77164456658216" lon="11.082445458686566"><ele>31.0</ele><time>2026-04-01T14:06:09.883Z</time></trkpt><trkpt lat="53.771739491298135" lon="11.082148389532632"><ele>31.0</ele><time>2026-04-01T14:06:10.883Z</time></trkpt><trkpt lat="53.77183458254709" lon="11.081854229154006"><ele>32.0</ele><time>2026-04-01T14:06:11.883Z</time></trkpt><trkpt lat="53.77191691696378" lon="11.08159940722891"><ele>33.0</ele><time>2026-04-01T14:06:12.883Z</time></trkpt><trkpt lat="53.772002405266555" lon="11.081334624189651"><ele>34.0</ele><time>2026-04-01T14:06:13.883Z</time></trkpt><trkpt lat="53.77208905828313" lon="11.081065262739731"><ele>35.0</ele><time>2026-04-01T14:06:14.883Z</time></trkpt><trkpt lat="53.772171994367454" lon="11.080803684260367"><ele>36.0</ele><time>2026-04-01T14:06:15.883Z</time></trkpt><trkpt lat="53.77225322686598" lon="11.08054559533617"><ele>37.0</ele><time>2026-04-01T14:06:16.883Z</time></trkpt><trkpt lat="53.772336206176625" lon="11.080281976085107"><ele>37.333333333333336</ele><time>2026-04-01T14:06:17.883Z</time></trkpt><trkpt lat="53.77241415014385" lon="11.080033128079842"><ele>37.666666666666664</ele><time>2026-04-01T14:06:18.883Z</time></trkpt><trkpt lat="53.77248371476061" lon="11.079796033882683"><ele>38.0</ele><time>2026-04-01T14:06:19.883Z</time></trkpt><trkpt lat="53.77255732489785" lon="11.079523846542363"><ele>38.0</ele><time>2026-04-01T14:06:20.883Z</time></trkpt><trkpt lat="53.772618437615954" lon="11.079278044103999"><ele>38.0</ele><time>2026-04-01T14:06:21.883Z</time></trkpt><trkpt lat="53.77267932168618" lon="11.078991188987896"><ele>38.0</ele><time>2026-04-01T14:06:22.883Z</time></trkpt><trkpt lat="53.77273142776883" lon="11.078713124368313"><ele>38.0</ele><time>2026-04-01T14:06:23.883Z</time></trkpt><trkpt lat="53.77277601494775" lon="11.078454936156012"><ele>38.0</ele><time>2026-04-01T14:06:24.883Z</time></trkpt><trkpt lat="53.772822314713636" lon="11.078149290215064"><ele>38.0</ele><time>2026-04-01T14:06:25.883Z</time></trkpt><trkpt lat="53.7728617741671" lon="11.077843971781379"><ele>36.666666666666664</ele><time>2026-04-01T14:06:26.883Z</time></trkpt><trkpt lat="53.772897029680095" lon="11.077525879901902"><ele>35.333333333333336</ele><time>2026-04-01T14:06:27.883Z</time></trkpt><trkpt lat="53.77293394934202" lon="11.07717694256402"><ele>34.0</ele><time>2026-04-01T14:06:28.883Z</time></trkpt><trkpt lat="53.772963593334666" lon="11.07687807159455"><ele>31.333333333333336</ele><time>2026-04-01T14:06:29.883Z</time></trkpt><trkpt lat="53.77299751175913" lon="11.076536106240649"><ele>28.666666666666664</ele><time>2026-04-01T14:06:30.883Z</time></trkpt><trkpt lat="53.773030290221286" lon="11.076209381619323"><ele>26.0</ele><time>2026-04-01T14:06:31.883Z</time></trkpt><trkpt lat="53.77306490642963" lon="11.07587374439499"><ele>25.333333333333332</ele><time>2026-04-01T14:06:32.883Z</time></trkpt><trkpt lat="53.773098749964824" lon="11.07554559924251"><ele>24.666666666666664</ele><time>2026-04-01T14:06:33.883Z</time></trkpt><trkpt lat="53.773132786928876" lon="11.075204600300419"><ele>24.0</ele><time>2026-04-01T14:06:34.883Z</time></trkpt><trkpt lat="53.7731653957269" lon="11.07485929850413"><ele>24.0</ele><time>2026-04-01T14:06:35.883Z</time></trkpt><trkpt lat="53.773197280610134" lon="11.074522456503894"><ele>24.0</ele><time>2026-04-01T14:06:36.883Z</time></trkpt><trkpt lat="53.77323088672261" lon="11.074177159325462"><ele>24.0</ele><time>2026-04-01T14:06:37.883Z</time></trkpt><trkpt lat="53.77326446550151" lon="11.073840480542012"><ele>24.333333333333336</ele><time>2026-04-01T14:06:38.883Z</time></trkpt><trkpt lat="53.77329460949194" lon="11.073538240574635"><ele>24.666666666666668</ele><time>2026-04-01T14:06:39.883Z</time></trkpt><trkpt lat="53.7733267007959" lon="11.07322271224015"><ele>25.0</ele><time>2026-04-01T14:06:40.883Z</time></trkpt><trkpt lat="53.77335788792824" lon="11.072917191099325"><ele>25.0</ele><time>2026-04-01T14:06:41.883Z</time></trkpt><trkpt lat="53.77338815629962" lon="11.072620670880811"><ele>25.0</ele><time>2026-04-01T14:06:42.883Z</time></trkpt><trkpt lat="53.77342105681674" lon="11.072300018929747"><ele>25.0</ele><time>2026-04-01T14:06:43.883Z</time></trkpt><trkpt lat="53.77345018366396" lon="11.072017681701839"><ele>25.666666666666668</ele><time>2026-04-01T14:06:44.883Z</time></trkpt><trkpt lat="53.7734788621951" lon="11.071731019437006"><ele>26.333333333333336</ele><time>2026-04-01T14:06:45.883Z</time></trkpt><trkpt lat="53.77350877144576" lon="11.071426960565823"><ele>27.0</ele><time>2026-04-01T14:06:46.883Z</time></trkpt><trkpt lat="53.77353777820134" lon="11.071132076601303"><ele>27.0</ele><time>2026-04-01T14:06:47.883Z</time></trkpt><trkpt lat="53.77356974493356" lon="11.070806241508619"><ele>27.0</ele><time>2026-04-01T14:06:48.883Z</time></trkpt><trkpt lat="53.773597645376995" lon="11.070520027129584"><ele>27.0</ele><time>2026-04-01T14:06:49.883Z</time></trkpt><trkpt lat="53.77362494499851" lon="11.070239976138241"><ele>28.333333333333336</ele><time>2026-04-01T14:06:50.883Z</time></trkpt><trkpt lat="53.77365291023769" lon="11.069950069780646"><ele>29.666666666666668</ele><time>2026-04-01T14:06:51.883Z</time></trkpt><trkpt lat="53.773684307477396" lon="11.069622172015588"><ele>31.0</ele><time>2026-04-01T14:06:52.883Z</time></trkpt><trkpt lat="53.7737165270163" lon="11.069325700779661"><ele>29.666666666666668</ele><time>2026-04-01T14:06:53.883Z</time></trkpt><trkpt lat="53.77375002253609" lon="11.06902157289684"><ele>28.333333333333336</ele><time>2026-04-01T14:06:54.883Z</time></trkpt><trkpt lat="53.773788694752604" lon="11.06871977047135"><ele>27.0</ele><time>2026-04-01T14:06:55.883Z</time></trkpt><trkpt lat="53.77383632321367" lon="11.068417059007885"><ele>26.666666666666664</ele><time>2026-04-01T14:06:56.883Z</time></trkpt><trkpt lat="53.773889239941866" lon="11.068118861473366"><ele>26.333333333333332</ele><time>2026-04-01T14:06:57.883Z</time></trkpt><trkpt lat="53.77395120804433" lon="11.067819367338018"><ele>26.0</ele><time>2026-04-01T14:06:58.883Z</time></trkpt><trkpt lat="53.77404419059432" lon="11.067514090517589"><ele>26.0</ele><time>2026-04-01T14:06:59.883Z</time></trkpt><trkpt lat="53.77408620048913" lon="11.067187521860848"><ele>26.0</ele><time>2026-04-01T14:07:00.883Z</time></trkpt><trkpt lat="53.774170209807984" lon="11.066895747847143"><ele>26.0</ele><time>2026-04-01T14:07:01.883Z</time></trkpt><trkpt lat="53.77426065764702" lon="11.066641164606162"><ele>24.666666666666664</ele><time>2026-04-01T14:07:02.883Z</time></trkpt><trkpt lat="53.774363659072925" lon="11.066402168079412"><ele>23.333333333333332</ele><time>2026-04-01T14:07:03.883Z</time></trkpt><trkpt lat="53.774476594305995" lon="11.066162177942797"><ele>22.0</ele><time>2026-04-01T14:07:04.883Z</time></trkpt><trkpt lat="53.774580288190414" lon="11.06590588795661"><ele>23.333333333333332</ele><time>2026-04-01T14:07:05.883Z</time></trkpt><trkpt lat="53.77463060351223" lon="11.065602077571176"><ele>24.666666666666664</ele><time>2026-04-01T14:07:06.883Z</time></trkpt><trkpt lat="53.77473521120437" lon="11.065350258100278"><ele>26.0</ele><time>2026-04-01T14:07:07.883Z</time></trkpt><trkpt lat="53.77485606935804" lon="11.065054185469318"><ele>26.666666666666664</ele><time>2026-04-01T14:07:08.883Z</time></trkpt><trkpt lat="53.77497270754015" lon="11.064768003578088"><ele>27.333333333333336</ele><time>2026-04-01T14:07:09.883Z</time></trkpt><trkpt lat="53.77509383707118" lon="11.064507972680135"><ele>28.0</ele><time>2026-04-01T14:07:10.883Z</time></trkpt><trkpt lat="53.77520561345077" lon="11.064252552272897"><ele>27.333333333333336</ele><time>2026-04-01T14:07:11.882Z</time></trkpt><trkpt lat="53.77531555416327" lon="11.064035073337108"><ele>26.666666666666664</ele><time>2026-04-01T14:07:12.882Z</time></trkpt><trkpt lat="53.77543037719064" lon="11.063854791558738"><ele>26.0</ele><time>2026-04-01T14:07:13.882Z</time></trkpt><trkpt lat="53.77553818938927" lon="11.063666186265142"><ele>26.0</ele><time>2026-04-01T14:07:14.882Z</time></trkpt><trkpt lat="53.77564678927089" lon="11.063519224087763"><ele>26.0</ele><time>2026-04-01T14:07:15.882Z</time></trkpt><trkpt lat="53.77576445035964" lon="11.063372236439855"><ele>26.0</ele><time>2026-04-01T14:07:16.882Z</time></trkpt><trkpt lat="53.77588297440259" lon="11.06324177379243"><ele>26.0</ele><time>2026-04-01T14:07:17.882Z</time></trkpt><trkpt lat="53.77595266987598" lon="11.06304215233761"><ele>27.0</ele><time>2026-04-01T14:07:18.882Z</time></trkpt><trkpt lat="53.77606882934117" lon="11.062874604397347"><ele>28.0</ele><time>2026-04-01T14:07:19.882Z</time></trkpt><trkpt lat="53.77617162608616" lon="11.06270932313875"><ele>29.0</ele><time>2026-04-01T14:07:20.882Z</time></trkpt><trkpt lat="53.77627169321859" lon="11.062556908292759"><ele>30.0</ele><time>2026-04-01T14:07:21.882Z</time></trkpt><trkpt lat="53.77636803596706" lon="11.06241125030483"><ele>30.0</ele><time>2026-04-01T14:07:22.882Z</time></trkpt><trkpt lat="53.77646733483859" lon="11.062261993143952"><ele>30.0</ele><time>2026-04-01T14:07:23.882Z</time></trkpt><trkpt lat="53.77656496285115" lon="11.062137735923624"><ele>30.0</ele><time>2026-04-01T14:07:24.882Z</time></trkpt><trkpt lat="53.77666669485332" lon="11.062034846350624"><ele>30.0</ele><time>2026-04-01T14:07:25.882Z</time></trkpt><trkpt lat="53.77675704669824" lon="11.061903762176854"><ele>29.75</ele><time>2026-04-01T14:07:26.882Z</time></trkpt><trkpt lat="53.77685750721087" lon="11.061732721714428"><ele>29.5</ele><time>2026-04-01T14:07:27.882Z</time></trkpt><trkpt lat="53.77695456821814" lon="11.061596450407365"><ele>29.25</ele><time>2026-04-01T14:07:28.882Z</time></trkpt><trkpt lat="53.77705372306558" lon="11.061480982523076"><ele>29.0</ele><time>2026-04-01T14:07:29.882Z</time></trkpt><trkpt lat="53.777109934269475" lon="11.061339305306362"><ele>29.0</ele><time>2026-04-01T14:07:30.882Z</time></trkpt><trkpt lat="53.77718333185502" lon="11.06118645357883"><ele>29.0</ele><time>2026-04-01T14:07:31.882Z</time></trkpt><trkpt lat="53.777266604449075" lon="11.061066712310268"><ele>29.0</ele><time>2026-04-01T14:07:32.882Z</time></trkpt><trkpt lat="53.777341308932854" lon="11.060923134929093"><ele>29.0</ele><time>2026-04-01T14:07:33.882Z</time></trkpt><trkpt lat="53.77741314589514" lon="11.060750584658798"><ele>29.25</ele><time>2026-04-01T14:07:34.882Z</time></trkpt><trkpt lat="53.777500663796424" lon="11.060606912622044"><ele>29.5</ele><time>2026-04-01T14:07:35.882Z</time></trkpt><trkpt lat="53.777581132035365" lon="11.060444638295648"><ele>29.75</ele><time>2026-04-01T14:07:36.882Z</time></trkpt><trkpt lat="53.777666302321904" lon="11.060296115301604"><ele>30.0</ele><time>2026-04-01T14:07:37.882Z</time></trkpt><trkpt lat="53.77774269093592" lon="11.060127408939655"><ele>30.25</ele><time>2026-04-01T14:07:38.882Z</time></trkpt><trkpt lat="53.777754674149946" lon="11.059909542289232"><ele>30.5</ele><time>2026-04-01T14:07:39.882Z</time></trkpt><trkpt lat="53.777817136869494" lon="11.059763352351764"><ele>30.75</ele><time>2026-04-01T14:07:40.882Z</time></trkpt><trkpt lat="53.777879057942975" lon="11.059608695638941"><ele>31.0</ele><time>2026-04-01T14:07:41.882Z</time></trkpt><trkpt lat="53.77794963601895" lon="11.059447795907715"><ele>31.0</ele><time>2026-04-01T14:07:42.882Z</time></trkpt><trkpt lat="53.77801783758624" lon="11.059293087038197"><ele>31.0</ele><time>2026-04-01T14:07:43.882Z</time></trkpt><trkpt lat="53.77809276590586" lon="11.059104304802903"><ele>31.0</ele><time>2026-04-01T14:07:44.882Z</time></trkpt><trkpt lat="53.77816749815166" lon="11.058928548778576"><ele>31.0</ele><time>2026-04-01T14:07:45.882Z</time></trkpt><trkpt lat="53.77823179820066" lon="11.058757438896965"><ele>31.5</ele><time>2026-04-01T14:07:46.882Z</time></trkpt><trkpt lat="53.778284702475396" lon="11.058563987291054"><ele>32.0</ele><time>2026-04-01T14:07:47.882Z</time></trkpt><trkpt lat="53.778336037590826" lon="11.058384220250813"><ele>32.5</ele><time>2026-04-01T14:07:48.882Z</time></trkpt><trkpt lat="53.77833765034298" lon="11.058191795611187"><ele>33.0</ele><time>2026-04-01T14:07:49.882Z</time></trkpt><trkpt lat="53.77834371935036" lon="11.0580224448941"><ele>33.0</ele><time>2026-04-01T14:07:50.882Z</time></trkpt><trkpt lat="53.77833177337917" lon="11.057814485864581"><ele>33.0</ele><time>2026-04-01T14:07:51.882Z</time></trkpt><trkpt lat="53.77831149026918" lon="11.057640479398577"><ele>33.0</ele><time>2026-04-01T14:07:52.882Z</time></trkpt><trkpt lat="53.77827543590272" lon="11.057450058806907"><ele>33.0</ele><time>2026-04-01T14:07:53.882Z</time></trkpt><trkpt lat="53.77817660926815" lon="11.05718351527324"><ele>32.5</ele><time>2026-04-01T14:07:54.882Z</time></trkpt><trkpt lat="53.77813608411601" lon="11.056981743246416"><ele>32.0</ele><time>2026-04-01T14:07:55.882Z</time></trkpt><trkpt lat="53.77811740760201" lon="11.056727398539902"><ele>31.5</ele><time>2026-04-01T14:07:56.882Z</time></trkpt><trkpt lat="53.778096696258906" lon="11.05652530343451"><ele>31.0</ele><time>2026-04-01T14:07:57.882Z</time></trkpt><trkpt lat="53.77806520460968" lon="11.056307979797174"><ele>30.5</ele><time>2026-04-01T14:07:58.882Z</time></trkpt><trkpt lat="53.7780532429627" lon="11.05609216909993"><ele>30.0</ele><time>2026-04-01T14:07:59.882Z</time></trkpt><trkpt lat="53.77806420444085" lon="11.055873512358112"><ele>29.5</ele><time>2026-04-01T14:08:00.882Z</time></trkpt><trkpt lat="53.7780814084966" lon="11.055642325135473"><ele>29.0</ele><time>2026-04-01T14:08:01.882Z</time></trkpt><trkpt lat="53.778116365398205" lon="11.055406995008203"><ele>28.25</ele><time>2026-04-01T14:08:02.882Z</time></trkpt><trkpt lat="53.77815010746639" lon="11.055168288655624"><ele>27.5</ele><time>2026-04-01T14:08:03.882Z</time></trkpt><trkpt lat="53.77818660237639" lon="11.054943443967332"><ele>26.75</ele><time>2026-04-01T14:08:04.882Z</time></trkpt><trkpt lat="53.778225138512326" lon="11.054726418533122"><ele>26.0</ele><time>2026-04-01T14:08:05.882Z</time></trkpt><trkpt lat="53.77826834365754" lon="11.054509809978939"><ele>25.75</ele><time>2026-04-01T14:08:06.882Z</time></trkpt><trkpt lat="53.778271920260075" lon="11.054271800538714"><ele>25.5</ele><time>2026-04-01T14:08:07.882Z</time></trkpt><trkpt lat="53.77830958629469" lon="11.054089888387638"><ele>25.25</ele><time>2026-04-01T14:08:08.882Z</time></trkpt><trkpt lat="53.778353171353935" lon="11.053870852488535"><ele>25.0</ele><time>2026-04-01T14:08:09.882Z</time></trkpt><trkpt lat="53.778423565482015" lon="11.0536701197206"><ele>25.0</ele><time>2026-04-01T14:08:10.882Z</time></trkpt><trkpt lat="53.7784744646428" lon="11.053469029285386"><ele>25.0</ele><time>2026-04-01T14:08:11.882Z</time></trkpt><trkpt lat="53.77852759456693" lon="11.053289064221751"><ele>25.0</ele><time>2026-04-01T14:08:12.882Z</time></trkpt><trkpt lat="53.77857371208006" lon="11.05309146257072"><ele>25.0</ele><time>2026-04-01T14:08:13.881Z</time></trkpt><trkpt lat="53.77863647737536" lon="11.05293620804199"><ele>25.0</ele><time>2026-04-01T14:08:14.881Z</time></trkpt><trkpt lat="53.77868648707627" lon="11.052768713390781"><ele>25.0</ele><time>2026-04-01T14:08:15.881Z</time></trkpt><trkpt lat="53.778728682354256" lon="11.052587583745666"><ele>25.0</ele><time>2026-04-01T14:08:16.881Z</time></trkpt><trkpt lat="53.778773457517985" lon="11.052451212738248"><ele>25.0</ele><time>2026-04-01T14:08:17.881Z</time></trkpt><trkpt lat="53.77881718300012" lon="11.052294213828674"><ele>25.0</ele><time>2026-04-01T14:08:18.881Z</time></trkpt><trkpt lat="53.77886504049479" lon="11.05213757744758"><ele>25.0</ele><time>2026-04-01T14:08:19.881Z</time></trkpt><trkpt lat="53.77891086360741" lon="11.052002027181087"><ele>25.0</ele><time>2026-04-01T14:08:20.881Z</time></trkpt><trkpt lat="53.77896226442815" lon="11.051807905305486"><ele>25.0</ele><time>2026-04-01T14:08:21.881Z</time></trkpt><trkpt lat="53.779005905727665" lon="11.051674957375464"><ele>25.0</ele><time>2026-04-01T14:08:22.881Z</time></trkpt><trkpt lat="53.779044568603375" lon="11.051550726981999"><ele>25.0</ele><time>2026-04-01T14:08:23.881Z</time></trkpt><trkpt lat="53.77907393053221" lon="11.051451996582818"><ele>25.166666666666668</ele><time>2026-04-01T14:08:24.881Z</time></trkpt><trkpt lat="53.779105310703535" lon="11.051346043852682"><ele>25.333333333333336</ele><time>2026-04-01T14:08:25.881Z</time></trkpt><trkpt lat="53.77914523754432" lon="11.051242708361407"><ele>25.5</ele><time>2026-04-01T14:08:26.881Z</time></trkpt><trkpt lat="53.779184907425766" lon="11.051137251073884"><ele>25.666666666666664</ele><time>2026-04-01T14:08:27.881Z</time></trkpt><trkpt lat="53.77923506296076" lon="11.051035616015607"><ele>25.833333333333332</ele><time>2026-04-01T14:08:28.881Z</time></trkpt><trkpt lat="53.77924935512542" lon="11.050886575995321"><ele>26.0</ele><time>2026-04-01T14:08:29.881Z</time></trkpt><trkpt lat="53.77928294287086" lon="11.050778854005786"><ele>25.999999999999996</ele><time>2026-04-01T14:08:30.881Z</time></trkpt><trkpt lat="53.77931130886328" lon="11.05067230819119"><ele>26.0</ele><time>2026-04-01T14:08:31.881Z</time></trkpt><trkpt lat="53.77936487014424" lon="11.050485441077484"><ele>26.0</ele><time>2026-04-01T14:08:33.881Z</time></trkpt><trkpt lat="53.779413171073585" lon="11.050358862904197"><ele>26.0</ele><time>2026-04-01T14:08:35.881Z</time></trkpt><trkpt lat="53.779479146668635" lon="11.050298135136888"><ele>25.999999999999996</ele><time>2026-04-01T14:08:38.881Z</time></trkpt><trkpt lat="53.779505217160086" lon="11.050180939593954"><ele>26.0</ele><time>2026-04-01T14:09:12.999Z</time></trkpt><trkpt lat="53.779525340346844" lon="11.05001548334651"><ele>26.0</ele><time>2026-04-01T14:09:14.999Z</time></trkpt><trkpt lat="53.7796926999336" lon="11.049694436736326"><ele>26.0</ele><time>2026-04-01T14:09:16.999Z</time></trkpt><trkpt lat="53.77980610045885" lon="11.04964941416974"><ele>26.0</ele><time>2026-04-01T14:09:18.999Z</time></trkpt><trkpt lat="53.77987025684972" lon="11.04961989823827"><ele>26.0</ele><time>2026-04-01T14:09:19.999Z</time></trkpt><trkpt lat="53.77994044076695" lon="11.049584899881138"><ele>25.999999999999996</ele><time>2026-04-01T14:09:20.999Z</time></trkpt><trkpt lat="53.78000748704371" lon="11.04954605982043"><ele>26.0</ele><time>2026-04-01T14:09:21.999Z</time></trkpt><trkpt lat="53.78007321440188" lon="11.049503049270667"><ele>26.0</ele><time>2026-04-01T14:09:22.999Z</time></trkpt><trkpt lat="53.78015355855308" lon="11.049451767336704"><ele>26.0</ele><time>2026-04-01T14:09:23.999Z</time></trkpt><trkpt lat="53.78024472557443" lon="11.04940562470773"><ele>25.999999999999996</ele><time>2026-04-01T14:09:25Z</time></trkpt><trkpt lat="53.78033373999497" lon="11.049335397070895"><ele>26.0</ele><time>2026-04-01T14:09:26Z</time></trkpt><trkpt lat="53.7804317741767" lon="11.049246954271831"><ele>26.0</ele><time>2026-04-01T14:09:27Z</time></trkpt><trkpt lat="53.78052797329609" lon="11.04917211050814"><ele>26.0</ele><time>2026-04-01T14:09:28Z</time></trkpt><trkpt lat="53.780618838861294" lon="11.0491007515672"><ele>26.0</ele><time>2026-04-01T14:09:29Z</time></trkpt><trkpt lat="53.78071663793649" lon="11.049034906770748"><ele>26.0</ele><time>2026-04-01T14:09:30Z</time></trkpt><trkpt lat="53.7808187631246" lon="11.048955837407457"><ele>26.0</ele><time>2026-04-01T14:09:31Z</time></trkpt><trkpt lat="53.78090878078075" lon="11.048865047210164"><ele>26.0</ele><time>2026-04-01T14:09:32Z</time></trkpt><trkpt lat="53.7809822077234" lon="11.048743018411352"><ele>26.0</ele><time>2026-04-01T14:09:33Z</time></trkpt><trkpt lat="53.78105379297803" lon="11.048623134581204"><ele>26.0</ele><time>2026-04-01T14:09:34Z</time></trkpt><trkpt lat="53.78111021679273" lon="11.048505694563715"><ele>26.0</ele><time>2026-04-01T14:09:35Z</time></trkpt><trkpt lat="53.78115425051464" lon="11.048380744972707"><ele>26.0</ele><time>2026-04-01T14:09:36Z</time></trkpt><trkpt lat="53.78118801254664" lon="11.048254391758263"><ele>25.833333333333332</ele><time>2026-04-01T14:09:37Z</time></trkpt><trkpt lat="53.78121014926187" lon="11.04812368355448"><ele>25.666666666666664</ele><time>2026-04-01T14:09:38Z</time></trkpt><trkpt lat="53.78122708104774" lon="11.047981126262394"><ele>25.5</ele><time>2026-04-01T14:09:39Z</time></trkpt><trkpt lat="53.78123902784404" lon="11.047832593762337"><ele>25.333333333333336</ele><time>2026-04-01T14:09:40Z</time></trkpt><trkpt lat="53.78125837174542" lon="11.04768810538147"><ele>25.166666666666668</ele><time>2026-04-01T14:09:41Z</time></trkpt><trkpt lat="53.781274905785274" lon="11.047541987593794"><ele>25.0</ele><time>2026-04-01T14:09:42Z</time></trkpt><trkpt lat="53.78129213938583" lon="11.04738901621678"><ele>24.6</ele><time>2026-04-01T14:09:43Z</time></trkpt><trkpt lat="53.78131006070998" lon="11.04724079184029"><ele>24.2</ele><time>2026-04-01T14:09:44Z</time></trkpt><trkpt lat="53.78132650744025" lon="11.047091571271778"><ele>23.799999999999997</ele><time>2026-04-01T14:09:45Z</time></trkpt><trkpt lat="53.781345378340625" lon="11.046942124999266"><ele>23.4</ele><time>2026-04-01T14:09:46Z</time></trkpt><trkpt lat="53.78136728187624" lon="11.046789493338228"><ele>23.0</ele><time>2026-04-01T14:09:47Z</time></trkpt><trkpt lat="53.78138614104078" lon="11.046633094605394"><ele>22.799999999999997</ele><time>2026-04-01T14:09:48Z</time></trkpt><trkpt lat="53.78140331125694" lon="11.046477624019001"><ele>22.6</ele><time>2026-04-01T14:09:49Z</time></trkpt><trkpt lat="53.78143138533356" lon="11.046335047768586"><ele>22.4</ele><time>2026-04-01T14:09:50Z</time></trkpt><trkpt lat="53.78146201795707" lon="11.046194121416006"><ele>22.200000000000003</ele><time>2026-04-01T14:09:51Z</time></trkpt><trkpt lat="53.78149766052997" lon="11.04604946653034"><ele>22.0</ele><time>2026-04-01T14:09:52Z</time></trkpt><trkpt lat="53.78153892405908" lon="11.04591042972993"><ele>21.6</ele><time>2026-04-01T14:09:53Z</time></trkpt><trkpt lat="53.78157809343159" lon="11.045759627133314"><ele>21.200000000000003</ele><time>2026-04-01T14:09:54Z</time></trkpt><trkpt lat="53.781637155474144" lon="11.045623962502718"><ele>20.8</ele><time>2026-04-01T14:09:55Z</time></trkpt><trkpt lat="53.78171303799506" lon="11.04550718656671"><ele>20.4</ele><time>2026-04-01T14:09:56Z</time></trkpt><trkpt lat="53.78175683240759" lon="11.045336368300344"><ele>20.0</ele><time>2026-04-01T14:09:57Z</time></trkpt><trkpt lat="53.78181025045332" lon="11.045173646274261"><ele>20.0</ele><time>2026-04-01T14:09:58Z</time></trkpt><trkpt lat="53.781859367306915" lon="11.04499699461694"><ele>20.0</ele><time>2026-04-01T14:09:59Z</time></trkpt><trkpt lat="53.78192157066524" lon="11.04483936271966"><ele>20.0</ele><time>2026-04-01T14:10:00Z</time></trkpt><trkpt lat="53.781988763244584" lon="11.044693323929089"><ele>20.0</ele><time>2026-04-01T14:10:01Z</time></trkpt><trkpt lat="53.78205627735135" lon="11.044552717176114"><ele>20.0</ele><time>2026-04-01T14:10:02Z</time></trkpt><trkpt lat="53.78214708861358" lon="11.044462076404093"><ele>20.0</ele><time>2026-04-01T14:10:03Z</time></trkpt><trkpt lat="53.78223747311103" lon="11.044362887673005"><ele>20.0</ele><time>2026-04-01T14:10:04Z</time></trkpt><trkpt lat="53.78233259823786" lon="11.044276656559873"><ele>20.0</ele><time>2026-04-01T14:10:05Z</time></trkpt><trkpt lat="53.782429836532835" lon="11.044208341713594"><ele>20.0</ele><time>2026-04-01T14:10:06Z</time></trkpt><trkpt lat="53.78252771601985" lon="11.044149174801298"><ele>20.0</ele><time>2026-04-01T14:10:07Z</time></trkpt><trkpt lat="53.78263931126844" lon="11.044128566560397"><ele>20.25</ele><time>2026-04-01T14:10:08Z</time></trkpt><trkpt lat="53.78275570860829" lon="11.044134821040311"><ele>20.5</ele><time>2026-04-01T14:10:09Z</time></trkpt><trkpt lat="53.78287175004229" lon="11.044129835386517"><ele>20.75</ele><time>2026-04-01T14:10:10Z</time></trkpt><trkpt lat="53.782986990350906" lon="11.044114470696941"><ele>21.0</ele><time>2026-04-01T14:10:11Z</time></trkpt><trkpt lat="53.78310355220334" lon="11.04411402274987"><ele>21.0</ele><time>2026-04-01T14:10:12Z</time></trkpt><trkpt lat="53.78321962298106" lon="11.044123268970116"><ele>21.0</ele><time>2026-04-01T14:10:13Z</time></trkpt><trkpt lat="53.7833339076815" lon="11.044107374776702"><ele>21.0</ele><time>2026-04-01T14:10:14Z</time></trkpt><trkpt lat="53.78344567453527" lon="11.044095685273469"><ele>21.0</ele><time>2026-04-01T14:10:15Z</time></trkpt><trkpt lat="53.78355806176137" lon="11.044086080437978"><ele>21.25</ele><time>2026-04-01T14:10:16Z</time></trkpt><trkpt lat="53.78367357689999" lon="11.044071836927122"><ele>21.5</ele><time>2026-04-01T14:10:17Z</time></trkpt><trkpt lat="53.783789847594605" lon="11.044053786013054"><ele>21.75</ele><time>2026-04-01T14:10:18.001Z</time></trkpt><trkpt lat="53.783907469911554" lon="11.044051705983488"><ele>22.0</ele><time>2026-04-01T14:10:19.001Z</time></trkpt><trkpt lat="53.78402603932661" lon="11.044050067806284"><ele>22.0</ele><time>2026-04-01T14:10:20.001Z</time></trkpt><trkpt lat="53.784144084847746" lon="11.044042903432452"><ele>22.0</ele><time>2026-04-01T14:10:21.001Z</time></trkpt><trkpt lat="53.784262208199806" lon="11.04403843416458"><ele>22.0</ele><time>2026-04-01T14:10:22.002Z</time></trkpt><trkpt lat="53.78438109275745" lon="11.044026576883173"><ele>22.0</ele><time>2026-04-01T14:10:23.002Z</time></trkpt><trkpt lat="53.78450408413095" lon="11.044021531456782"><ele>22.25</ele><time>2026-04-01T14:10:24.002Z</time></trkpt><trkpt lat="53.784634449062644" lon="11.044015098375128"><ele>22.5</ele><time>2026-04-01T14:10:25.002Z</time></trkpt><trkpt lat="53.78476480403347" lon="11.044005849490894"><ele>22.75</ele><time>2026-04-01T14:10:26.002Z</time></trkpt><trkpt lat="53.78489513352314" lon="11.04399553163283"><ele>23.0</ele><time>2026-04-01T14:10:27.002Z</time></trkpt><trkpt lat="53.785026016284036" lon="11.043987621274505"><ele>23.0</ele><time>2026-04-01T14:10:28.002Z</time></trkpt><trkpt lat="53.78515638636151" lon="11.043969543225831"><ele>23.0</ele><time>2026-04-01T14:10:29.002Z</time></trkpt><trkpt lat="53.785287196066896" lon="11.043964164547797"><ele>23.0</ele><time>2026-04-01T14:10:30.002Z</time></trkpt><trkpt lat="53.78542009896957" lon="11.043959857870721"><ele>23.0</ele><time>2026-04-01T14:10:31.002Z</time></trkpt><trkpt lat="53.78555546093389" lon="11.043946513400304"><ele>23.25</ele><time>2026-04-01T14:10:32.002Z</time></trkpt><trkpt lat="53.78568970778008" lon="11.043931966775832"><ele>23.5</ele><time>2026-04-01T14:10:33.002Z</time></trkpt><trkpt lat="53.78582442242119" lon="11.04392522234687"><ele>23.75</ele><time>2026-04-01T14:10:34.002Z</time></trkpt><trkpt lat="53.7859516562771" lon="11.043923069903155"><ele>24.0</ele><time>2026-04-01T14:10:35.002Z</time></trkpt><trkpt lat="53.786073057873324" lon="11.043916154338717"><ele>24.25</ele><time>2026-04-01T14:10:36.002Z</time></trkpt><trkpt lat="53.786193583018424" lon="11.043911116733167"><ele>24.5</ele><time>2026-04-01T14:10:37.002Z</time></trkpt><trkpt lat="53.78631774706851" lon="11.043907639656956"><ele>24.75</ele><time>2026-04-01T14:10:38.002Z</time></trkpt><trkpt lat="53.78644334999426" lon="11.043905349992494"><ele>25.0</ele><time>2026-04-01T14:10:39.002Z</time></trkpt><trkpt lat="53.786568639114016" lon="11.043883201891925"><ele>25.0</ele><time>2026-04-01T14:10:40.002Z</time></trkpt><trkpt lat="53.78669452177407" lon="11.043875291627401"><ele>25.0</ele><time>2026-04-01T14:10:41.002Z</time></trkpt><trkpt lat="53.78682058650908" lon="11.043840404734256"><ele>25.0</ele><time>2026-04-01T14:10:42.002Z</time></trkpt><trkpt lat="53.786944447336886" lon="11.043811645282316"><ele>25.0</ele><time>2026-04-01T14:10:43.002Z</time></trkpt><trkpt lat="53.787064991293285" lon="11.043791124607385"><ele>25.25</ele><time>2026-04-01T14:10:44.002Z</time></trkpt><trkpt lat="53.78718334231112" lon="11.043749697782825"><ele>25.5</ele><time>2026-04-01T14:10:45.002Z</time></trkpt><trkpt lat="53.78729960127662" lon="11.043708860878784"><ele>25.75</ele><time>2026-04-01T14:10:46.002Z</time></trkpt><trkpt lat="53.787413089460074" lon="11.043658463058547"><ele>26.0</ele><time>2026-04-01T14:10:47.002Z</time></trkpt><trkpt lat="53.78752610372366" lon="11.043602346767571"><ele>26.0</ele><time>2026-04-01T14:10:48.002Z</time></trkpt><trkpt lat="53.7876405852119" lon="11.04354573269955"><ele>26.0</ele><time>2026-04-01T14:10:49.002Z</time></trkpt><trkpt lat="53.78774964665652" lon="11.043472607099664"><ele>26.0</ele><time>2026-04-01T14:10:50.002Z</time></trkpt><trkpt lat="53.787839228600696" lon="11.043387000996924"><ele>26.0</ele><time>2026-04-01T14:10:51.002Z</time></trkpt><trkpt lat="53.787919068581985" lon="11.04331189414253"><ele>26.0</ele><time>2026-04-01T14:10:52.002Z</time></trkpt><trkpt lat="53.787988882808996" lon="11.043278963199784"><ele>26.6</ele><time>2026-04-01T14:10:53.002Z</time></trkpt><trkpt lat="53.78806844377795" lon="11.043237202151202"><ele>27.200000000000003</ele><time>2026-04-01T14:10:54.002Z</time></trkpt><trkpt lat="53.788213812143994" lon="11.04325081072864"><ele>27.799999999999997</ele><time>2026-04-01T14:10:55.002Z</time></trkpt><trkpt lat="53.788271548409405" lon="11.043384091817781"><ele>28.4</ele><time>2026-04-01T14:10:56.002Z</time></trkpt><trkpt lat="53.788332769657764" lon="11.043506356178773"><ele>29.0</ele><time>2026-04-01T14:10:57.002Z</time></trkpt><trkpt lat="53.78839973726577" lon="11.043633281033022"><ele>29.0</ele><time>2026-04-01T14:10:58.002Z</time></trkpt><trkpt lat="53.78846609020612" lon="11.043759036737262"><ele>29.0</ele><time>2026-04-01T14:10:59.002Z</time></trkpt><trkpt lat="53.78852477664383" lon="11.043902706320347"><ele>29.0</ele><time>2026-04-01T14:11:00.002Z</time></trkpt><trkpt lat="53.788601642090036" lon="11.04399755961606"><ele>29.0</ele><time>2026-04-01T14:11:01.002Z</time></trkpt><trkpt lat="53.788668046347546" lon="11.044098399270585"><ele>29.0</ele><time>2026-04-01T14:11:02.002Z</time></trkpt><trkpt lat="53.788727943630136" lon="11.044193995155132"><ele>28.799999999999997</ele><time>2026-04-01T14:11:03.002Z</time></trkpt><trkpt lat="53.78883298292982" lon="11.044286795301929"><ele>28.599999999999998</ele><time>2026-04-01T14:11:04.002Z</time></trkpt><trkpt lat="53.78889124849461" lon="11.04419864103721"><ele>28.4</ele><time>2026-04-01T14:11:05.002Z</time></trkpt><trkpt lat="53.788957907806484" lon="11.044092260761309"><ele>28.2</ele><time>2026-04-01T14:11:06.002Z</time></trkpt><trkpt lat="53.78902893721205" lon="11.04397650373849"><ele>28.0</ele><time>2026-04-01T14:11:07.002Z</time></trkpt><trkpt lat="53.789105493694784" lon="11.043854140548536"><ele>28.0</ele><time>2026-04-01T14:11:08.002Z</time></trkpt><trkpt lat="53.78918810369786" lon="11.043724965695022"><ele>28.0</ele><time>2026-04-01T14:11:09.002Z</time></trkpt><trkpt lat="53.7892781686737" lon="11.043587128055751"><ele>28.0</ele><time>2026-04-01T14:11:10.002Z</time></trkpt><trkpt lat="53.78937345394854" lon="11.043442004609457"><ele>28.0</ele><time>2026-04-01T14:11:11.002Z</time></trkpt><trkpt lat="53.789474351117924" lon="11.043289560560478"><ele>28.0</ele><time>2026-04-01T14:11:12.002Z</time></trkpt><trkpt lat="53.789579476889024" lon="11.043128280267824"><ele>28.0</ele><time>2026-04-01T14:11:13.002Z</time></trkpt><trkpt lat="53.78968721346784" lon="11.042960250076682"><ele>28.0</ele><time>2026-04-01T14:11:14.002Z</time></trkpt><trkpt lat="53.78979980493669" lon="11.042786504763493"><ele>28.0</ele><time>2026-04-01T14:11:15.002Z</time></trkpt><trkpt lat="53.78991177500961" lon="11.042614278231332"><ele>27.666666666666668</ele><time>2026-04-01T14:11:16.002Z</time></trkpt><trkpt lat="53.79002861827424" lon="11.042440345066943"><ele>27.333333333333336</ele><time>2026-04-01T14:11:17.002Z</time></trkpt><trkpt lat="53.79015373798011" lon="11.042254091390372"><ele>27.0</ele><time>2026-04-01T14:11:18.002Z</time></trkpt><trkpt lat="53.79025817790491" lon="11.042020398562535"><ele>26.666666666666664</ele><time>2026-04-01T14:11:19.002Z</time></trkpt><trkpt lat="53.79040085830198" lon="11.041822834026803"><ele>26.333333333333332</ele><time>2026-04-01T14:11:20.002Z</time></trkpt><trkpt lat="53.790552013037775" lon="11.04163360678044"><ele>26.0</ele><time>2026-04-01T14:11:21.002Z</time></trkpt><trkpt lat="53.790712255763964" lon="11.04150209402557"><ele>26.0</ele><time>2026-04-01T14:11:22.002Z</time></trkpt><trkpt lat="53.7908751635701" lon="11.041348197245936"><ele>26.0</ele><time>2026-04-01T14:11:23.002Z</time></trkpt><trkpt lat="53.79105732778497" lon="11.041266840118237"><ele>26.0</ele><time>2026-04-01T14:11:24.002Z</time></trkpt><trkpt lat="53.79121429330872" lon="11.041104805446894"><ele>25.333333333333332</ele><time>2026-04-01T14:11:25.002Z</time></trkpt><trkpt lat="53.791364189583305" lon="11.040947142703688"><ele>24.666666666666664</ele><time>2026-04-01T14:11:26.002Z</time></trkpt><trkpt lat="53.79152897985194" lon="11.040775462249941"><ele>24.0</ele><time>2026-04-01T14:11:27.003Z</time></trkpt><trkpt lat="53.79169316823918" lon="11.040606811589674"><ele>22.0</ele><time>2026-04-01T14:11:28.003Z</time></trkpt><trkpt lat="53.79184615822362" lon="11.040398488709744"><ele>20.0</ele><time>2026-04-01T14:11:29.003Z</time></trkpt><trkpt lat="53.791996350235834" lon="11.04020249513109"><ele>18.0</ele><time>2026-04-01T14:11:30.003Z</time></trkpt><trkpt lat="53.79213699082285" lon="11.039974877090131"><ele>19.0</ele><time>2026-04-01T14:11:31.003Z</time></trkpt><trkpt lat="53.79226930192363" lon="11.039739684483635"><ele>20.0</ele><time>2026-04-01T14:11:32.003Z</time></trkpt><trkpt lat="53.79240885598323" lon="11.039436135175187"><ele>21.0</ele><time>2026-04-01T14:11:33.003Z</time></trkpt><trkpt lat="53.79251495119367" lon="11.039173343759682"><ele>21.666666666666668</ele><time>2026-04-01T14:11:34.003Z</time></trkpt><trkpt lat="53.792632635747154" lon="11.038899814521196"><ele>22.333333333333336</ele><time>2026-04-01T14:11:35.003Z</time></trkpt><trkpt lat="53.79278735060492" lon="11.038694972694579"><ele>23.0</ele><time>2026-04-01T14:11:36.003Z</time></trkpt><trkpt lat="53.792917216601545" lon="11.038473359383136"><ele>22.666666666666668</ele><time>2026-04-01T14:11:37.003Z</time></trkpt><trkpt lat="53.79306449216375" lon="11.038293849752849"><ele>22.333333333333332</ele><time>2026-04-01T14:11:38.003Z</time></trkpt><trkpt lat="53.79322485075561" lon="11.038161302718327"><ele>22.0</ele><time>2026-04-01T14:11:39.003Z</time></trkpt><trkpt lat="53.79338532615132" lon="11.038018720577575"><ele>21.333333333333332</ele><time>2026-04-01T14:11:40.003Z</time></trkpt><trkpt lat="53.793547613055175" lon="11.037885650648152"><ele>20.666666666666668</ele><time>2026-04-01T14:11:41.003Z</time></trkpt><trkpt lat="53.793710075416676" lon="11.037745958967562"><ele>20.0</ele><time>2026-04-01T14:11:42.003Z</time></trkpt><trkpt lat="53.7938734712858" lon="11.037613354852173"><ele>20.0</ele><time>2026-04-01T14:11:43.003Z</time></trkpt><trkpt lat="53.79405368087126" lon="11.037504057599747"><ele>20.0</ele><time>2026-04-01T14:11:44.003Z</time></trkpt><trkpt lat="53.79423480420363" lon="11.037411236047907"><ele>20.0</ele><time>2026-04-01T14:11:45.003Z</time></trkpt><trkpt lat="53.79441363320122" lon="11.037323429911575"><ele>21.0</ele><time>2026-04-01T14:11:46.003Z</time></trkpt><trkpt lat="53.79460862506834" lon="11.037338179118573"><ele>22.0</ele><time>2026-04-01T14:11:47.003Z</time></trkpt><trkpt lat="53.794787433193235" lon="11.037412902915872"><ele>23.0</ele><time>2026-04-01T14:11:48.003Z</time></trkpt><trkpt lat="53.794967176330736" lon="11.03750026984109"><ele>23.0</ele><time>2026-04-01T14:11:49.003Z</time></trkpt><trkpt lat="53.79513744610518" lon="11.037549237665335"><ele>23.0</ele><time>2026-04-01T14:11:50.003Z</time></trkpt><trkpt lat="53.795305289700856" lon="11.037594254365946"><ele>23.0</ele><time>2026-04-01T14:11:51.003Z</time></trkpt><trkpt lat="53.795480327711076" lon="11.03763436883975"><ele>23.666666666666668</ele><time>2026-04-01T14:11:52.003Z</time></trkpt><trkpt lat="53.79565425593595" lon="11.037647754955854"><ele>24.333333333333336</ele><time>2026-04-01T14:11:53.003Z</time></trkpt><trkpt lat="53.79582874034625" lon="11.037625008556896"><ele>25.0</ele><time>2026-04-01T14:11:54.003Z</time></trkpt><trkpt lat="53.79600320654635" lon="11.037540874434006"><ele>25.333333333333336</ele><time>2026-04-01T14:11:55.003Z</time></trkpt><trkpt lat="53.79616842293222" lon="11.037417913777846"><ele>25.666666666666664</ele><time>2026-04-01T14:11:56.003Z</time></trkpt><trkpt lat="53.79633065567761" lon="11.037305546079407"><ele>26.0</ele><time>2026-04-01T14:11:57.003Z</time></trkpt><trkpt lat="53.796496067792326" lon="11.03718935469153"><ele>26.0</ele><time>2026-04-01T14:11:58.003Z</time></trkpt><trkpt lat="53.79666720212267" lon="11.037094410221854"><ele>26.0</ele><time>2026-04-01T14:11:59.003Z</time></trkpt><trkpt lat="53.79683419167585" lon="11.03699047520267"><ele>26.0</ele><time>2026-04-01T14:12:00.003Z</time></trkpt><trkpt lat="53.796996332382086" lon="11.03686198869921"><ele>26.666666666666664</ele><time>2026-04-01T14:12:01.003Z</time></trkpt><trkpt lat="53.79716746673559" lon="11.036758284207739"><ele>27.333333333333336</ele><time>2026-04-01T14:12:02.003Z</time></trkpt><trkpt lat="53.79733855865299" lon="11.036656231929594"><ele>28.0</ele><time>2026-04-01T14:12:03.003Z</time></trkpt><trkpt lat="53.79751983460198" lon="11.036565788435373"><ele>28.0</ele><time>2026-04-01T14:12:04.003Z</time></trkpt><trkpt lat="53.7976895561111" lon="11.036450307394656"><ele>28.0</ele><time>2026-04-01T14:12:05.003Z</time></trkpt><trkpt lat="53.79785817119798" lon="11.036347703123486"><ele>28.0</ele><time>2026-04-01T14:12:06.003Z</time></trkpt><trkpt lat="53.79801258034512" lon="11.036267318726859"><ele>28.0</ele><time>2026-04-01T14:12:07.003Z</time></trkpt><trkpt lat="53.79815864690265" lon="11.036214402417759"><ele>28.0</ele><time>2026-04-01T14:12:08.003Z</time></trkpt><trkpt lat="53.7982989105075" lon="11.036180467555212"><ele>28.0</ele><time>2026-04-01T14:12:09.003Z</time></trkpt><trkpt lat="53.798433052746674" lon="11.036175654870384"><ele>28.0</ele><time>2026-04-01T14:12:10.003Z</time></trkpt><trkpt lat="53.79853661806218" lon="11.036184750371838"><ele>28.333333333333336</ele><time>2026-04-01T14:12:11.003Z</time></trkpt><trkpt lat="53.79860361847938" lon="11.036203303079475"><ele>28.666666666666668</ele><time>2026-04-01T14:12:12.003Z</time></trkpt><trkpt lat="53.79871540365891" lon="11.036211040112448"><ele>29.0</ele><time>2026-04-01T14:12:14.003Z</time></trkpt><trkpt lat="53.798776980935294" lon="11.036183752920723"><ele>29.333333333333336</ele><time>2026-04-01T14:12:15.003Z</time></trkpt><trkpt lat="53.798827127203786" lon="11.036093874020757"><ele>29.666666666666668</ele><time>2026-04-01T14:12:16.003Z</time></trkpt><trkpt lat="53.79887559763074" lon="11.035992978855914"><ele>30.0</ele><time>2026-04-01T14:12:17.003Z</time></trkpt><trkpt lat="53.798928593839676" lon="11.03588977389252"><ele>30.166666666666668</ele><time>2026-04-01T14:12:18.003Z</time></trkpt><trkpt lat="53.79897426157872" lon="11.035795264350414"><ele>30.333333333333336</ele><time>2026-04-01T14:12:19.003Z</time></trkpt><trkpt lat="53.79901717067804" lon="11.035698345779256"><ele>30.5</ele><time>2026-04-01T14:12:20.003Z</time></trkpt><trkpt lat="53.799064122539235" lon="11.03559859811578"><ele>30.666666666666668</ele><time>2026-04-01T14:12:21.003Z</time></trkpt><trkpt lat="53.79911466957486" lon="11.035494356770686"><ele>30.833333333333336</ele><time>2026-04-01T14:12:22.003Z</time></trkpt><trkpt lat="53.79916832033219" lon="11.03539614672173"><ele>31.0</ele><time>2026-04-01T14:12:23.003Z</time></trkpt><trkpt lat="53.79922561513176" lon="11.035303334447372"><ele>31.000000000000004</ele><time>2026-04-01T14:12:24.003Z</time></trkpt><trkpt lat="53.79929795308262" lon="11.035227440127958"><ele>31.0</ele><time>2026-04-01T14:12:25.003Z</time></trkpt><trkpt lat="53.79936729786134" lon="11.035140056159486"><ele>31.0</ele><time>2026-04-01T14:12:26.003Z</time></trkpt><trkpt lat="53.7994525466461" lon="11.035099952728814"><ele>31.0</ele><time>2026-04-01T14:12:27.003Z</time></trkpt><trkpt lat="53.79952653682843" lon="11.035040495429756"><ele>31.000000000000004</ele><time>2026-04-01T14:12:28.003Z</time></trkpt><trkpt lat="53.799606184926574" lon="11.03498378543879"><ele>31.0</ele><time>2026-04-01T14:12:29.003Z</time></trkpt><trkpt lat="53.79969433163433" lon="11.034916610215506"><ele>31.200000000000003</ele><time>2026-04-01T14:12:30.003Z</time></trkpt><trkpt lat="53.799778148881444" lon="11.034856942567151"><ele>31.400000000000002</ele><time>2026-04-01T14:12:31.003Z</time></trkpt><trkpt lat="53.799860210368905" lon="11.034791326964418"><ele>31.6</ele><time>2026-04-01T14:12:32.003Z</time></trkpt><trkpt lat="53.79995604998206" lon="11.034748753317158"><ele>31.8</ele><time>2026-04-01T14:12:33.003Z</time></trkpt><trkpt lat="53.8000513418807" lon="11.034718753911632"><ele>32.0</ele><time>2026-04-01T14:12:34.003Z</time></trkpt><trkpt lat="53.8001492580545" lon="11.034684702248423"><ele>32.6</ele><time>2026-04-01T14:12:35.003Z</time></trkpt><trkpt lat="53.80025301899343" lon="11.034667546593747"><ele>33.2</ele><time>2026-04-01T14:12:36.003Z</time></trkpt><trkpt lat="53.800353964412174" lon="11.034658558307793"><ele>33.8</ele><time>2026-04-01T14:12:37.004Z</time></trkpt><trkpt lat="53.800461116554224" lon="11.034665311320891"><ele>34.4</ele><time>2026-04-01T14:12:38.004Z</time></trkpt><trkpt lat="53.80056697349048" lon="11.034678859442808"><ele>35.0</ele><time>2026-04-01T14:12:39.004Z</time></trkpt><trkpt lat="53.8006692178295" lon="11.034672472011533"><ele>35.0</ele><time>2026-04-01T14:12:40.004Z</time></trkpt><trkpt lat="53.80077206596594" lon="11.03466203819465"><ele>35.0</ele><time>2026-04-01T14:12:41.004Z</time></trkpt><trkpt lat="53.80087091726715" lon="11.03465307740421"><ele>35.0</ele><time>2026-04-01T14:12:42.004Z</time></trkpt><trkpt lat="53.80096490969634" lon="11.0346390071851"><ele>35.0</ele><time>2026-04-01T14:12:43.004Z</time></trkpt><trkpt lat="53.80105258343744" lon="11.034628970418403"><ele>35.0</ele><time>2026-04-01T14:12:44.004Z</time></trkpt><trkpt lat="53.80113464394345" lon="11.034634592011864"><ele>35.33333333333333</ele><time>2026-04-01T14:12:45.004Z</time></trkpt><trkpt lat="53.801218124962425" lon="11.03463112980195"><ele>35.666666666666664</ele><time>2026-04-01T14:12:46.004Z</time></trkpt><trkpt lat="53.80129673050284" lon="11.034623491727173"><ele>36.0</ele><time>2026-04-01T14:12:47.004Z</time></trkpt><trkpt lat="53.80137217619401" lon="11.034630377440598"><ele>36.333333333333336</ele><time>2026-04-01T14:12:48.004Z</time></trkpt><trkpt lat="53.80144675272397" lon="11.034612430113041"><ele>36.66666666666667</ele><time>2026-04-01T14:12:49.004Z</time></trkpt><trkpt lat="53.801520429209226" lon="11.0346120519296"><ele>37.0</ele><time>2026-04-01T14:12:50.004Z</time></trkpt><trkpt lat="53.801593919578224" lon="11.034600006344945"><ele>37.0</ele><time>2026-04-01T14:12:51.004Z</time></trkpt><trkpt lat="53.801661958435055" lon="11.034625979604039"><ele>37.0</ele><time>2026-04-01T14:12:52.004Z</time></trkpt><trkpt lat="53.8017253820479" lon="11.034602611816057"><ele>37.0</ele><time>2026-04-01T14:12:53.004Z</time></trkpt><trkpt lat="53.801843347743464" lon="11.034635531799168"><ele>37.0</ele><time>2026-04-01T14:12:55.004Z</time></trkpt><trkpt lat="53.80196090307882" lon="11.034643234011659"><ele>37.0</ele><time>2026-04-01T14:12:57.004Z</time></trkpt><trkpt lat="53.802025271433074" lon="11.034647935601937"><ele>37.0</ele><time>2026-04-01T14:12:58.004Z</time></trkpt><trkpt lat="53.802095595085234" lon="11.034653072080145"><ele>36.66666666666667</ele><time>2026-04-01T14:12:59.004Z</time></trkpt><trkpt lat="53.802172076002456" lon="11.034656296480517"><ele>36.333333333333336</ele><time>2026-04-01T14:13:00.004Z</time></trkpt><trkpt lat="53.80225193744375" lon="11.034659865555184"><ele>36.0</ele><time>2026-04-01T14:13:01.004Z</time></trkpt><trkpt lat="53.80233605525969" lon="11.034640048938485"><ele>35.666666666666664</ele><time>2026-04-01T14:13:02.004Z</time></trkpt><trkpt lat="53.802425446388376" lon="11.034657039908016"><ele>35.33333333333333</ele><time>2026-04-01T14:13:03.004Z</time></trkpt><trkpt lat="53.8025209659109" lon="11.034674208617323"><ele>35.0</ele><time>2026-04-01T14:13:04.004Z</time></trkpt><trkpt lat="53.80261989466972" lon="11.034691226015493"><ele>35.4</ele><time>2026-04-01T14:13:05.004Z</time></trkpt><trkpt lat="53.8027193020981" lon="11.034703257907118"><ele>35.8</ele><time>2026-04-01T14:13:06.004Z</time></trkpt><trkpt lat="53.802821831194976" lon="11.034714634146889"><ele>36.2</ele><time>2026-04-01T14:13:07.004Z</time></trkpt><trkpt lat="53.80292581811697" lon="11.03472592117129"><ele>36.6</ele><time>2026-04-01T14:13:08.004Z</time></trkpt><trkpt lat="53.80302616942699" lon="11.034736598628076"><ele>37.0</ele><time>2026-04-01T14:13:09.004Z</time></trkpt><trkpt lat="53.80312308598755" lon="11.034738804535689"><ele>37.0</ele><time>2026-04-01T14:13:10.004Z</time></trkpt><trkpt lat="53.803225321078806" lon="11.034753032314862"><ele>37.0</ele><time>2026-04-01T14:13:11.004Z</time></trkpt><trkpt lat="53.80332776983888" lon="11.034765234008603"><ele>37.0</ele><time>2026-04-01T14:13:12.004Z</time></trkpt><trkpt lat="53.803432712005915" lon="11.034758992460869"><ele>37.0</ele><time>2026-04-01T14:13:13.004Z</time></trkpt><trkpt lat="53.80353834744025" lon="11.034723719427733"><ele>37.0</ele><time>2026-04-01T14:13:14.004Z</time></trkpt><trkpt lat="53.80364659712368" lon="11.034681309794665"><ele>37.0</ele><time>2026-04-01T14:13:15.004Z</time></trkpt><trkpt lat="53.80376416839414" lon="11.034638746690927"><ele>37.0</ele><time>2026-04-01T14:13:16.004Z</time></trkpt><trkpt lat="53.80389543273235" lon="11.034579692530553"><ele>37.0</ele><time>2026-04-01T14:13:17.004Z</time></trkpt><trkpt lat="53.804033684801745" lon="11.034504914348178"><ele>37.0</ele><time>2026-04-01T14:13:18.004Z</time></trkpt><trkpt lat="53.80417171954962" lon="11.034409753119256"><ele>37.0</ele><time>2026-04-01T14:13:19.004Z</time></trkpt><trkpt lat="53.804315113722836" lon="11.034315250561399"><ele>37.0</ele><time>2026-04-01T14:13:20.004Z</time></trkpt><trkpt lat="53.804460541612" lon="11.034229787592944"><ele>37.0</ele><time>2026-04-01T14:13:21.004Z</time></trkpt><trkpt lat="53.80461975019403" lon="11.034206178602858"><ele>37.66666666666667</ele><time>2026-04-01T14:13:22.004Z</time></trkpt><trkpt lat="53.804781502704" lon="11.034181646386106"><ele>38.333333333333336</ele><time>2026-04-01T14:13:23.004Z</time></trkpt><trkpt lat="53.80493968425581" lon="11.0341482018278"><ele>39.0</ele><time>2026-04-01T14:13:24.004Z</time></trkpt><trkpt lat="53.80509264890542" lon="11.0341242945889"><ele>40.0</ele><time>2026-04-01T14:13:25.004Z</time></trkpt><trkpt lat="53.80522928178548" lon="11.034105867055661"><ele>41.0</ele><time>2026-04-01T14:13:26.004Z</time></trkpt><trkpt lat="53.805350069158465" lon="11.03410340512902"><ele>42.0</ele><time>2026-04-01T14:13:27.004Z</time></trkpt><trkpt lat="53.805456761650426" lon="11.034114405767939"><ele>43.0</ele><time>2026-04-01T14:13:28.004Z</time></trkpt><trkpt lat="53.80555418681599" lon="11.034130464819613"><ele>43.0</ele><time>2026-04-01T14:13:29.004Z</time></trkpt><trkpt lat="53.80562778703704" lon="11.034161465926093"><ele>43.0</ele><time>2026-04-01T14:13:30.004Z</time></trkpt><trkpt lat="53.805701578949616" lon="11.034164171143406"><ele>43.0</ele><time>2026-04-01T14:13:31.004Z</time></trkpt><trkpt lat="53.8057784763118" lon="11.034051001724638"><ele>43.0</ele><time>2026-04-01T14:13:32.004Z</time></trkpt><trkpt lat="53.80583722968134" lon="11.033867219024291"><ele>43.0</ele><time>2026-04-01T14:13:33.004Z</time></trkpt><trkpt lat="53.80588489594536" lon="11.033703990655898"><ele>43.0</ele><time>2026-04-01T14:13:34.004Z</time></trkpt><trkpt lat="53.80595418016301" lon="11.033560163783507"><ele>43.0</ele><time>2026-04-01T14:13:35.004Z</time></trkpt><trkpt lat="53.80602966307042" lon="11.033440648000438"><ele>43.0</ele><time>2026-04-01T14:13:36.004Z</time></trkpt><trkpt lat="53.80610576504205" lon="11.033306120565785"><ele>43.0</ele><time>2026-04-01T14:13:37.004Z</time></trkpt><trkpt lat="53.806179991065974" lon="11.033155805880353"><ele>43.0</ele><time>2026-04-01T14:13:38.004Z</time></trkpt><trkpt lat="53.806266384658464" lon="11.033031775340767"><ele>44.2</ele><time>2026-04-01T14:13:39.004Z</time></trkpt><trkpt lat="53.806364628539384" lon="11.032908122307939"><ele>45.4</ele><time>2026-04-01T14:13:40.004Z</time></trkpt><trkpt lat="53.806473007875034" lon="11.03284780838686"><ele>46.6</ele><time>2026-04-01T14:13:41.004Z</time></trkpt><trkpt lat="53.80658725677485" lon="11.032828101125865"><ele>47.800000000000004</ele><time>2026-04-01T14:13:42.004Z</time></trkpt><trkpt lat="53.80668173418676" lon="11.032827982253918"><ele>49.0</ele><time>2026-04-01T14:13:43.004Z</time></trkpt><trkpt lat="53.80678008727254" lon="11.032869873687439"><ele>49.400000000000006</ele><time>2026-04-01T14:13:44.004Z</time></trkpt><trkpt lat="53.806878953724905" lon="11.032938900909706"><ele>49.8</ele><time>2026-04-01T14:13:45.004Z</time></trkpt><trkpt lat="53.806974636003886" lon="11.033015611763537"><ele>50.2</ele><time>2026-04-01T14:13:46.005Z</time></trkpt><trkpt lat="53.807068944290826" lon="11.033071293621386"><ele>50.599999999999994</ele><time>2026-04-01T14:13:47.005Z</time></trkpt><trkpt lat="53.80716502861906" lon="11.033114499131798"><ele>51.0</ele><time>2026-04-01T14:13:48.005Z</time></trkpt><trkpt lat="53.80725186119587" lon="11.033107571254176"><ele>51.0</ele><time>2026-04-01T14:13:49.005Z</time></trkpt><trkpt lat="53.80733382915683" lon="11.033070718929642"><ele>51.0</ele><time>2026-04-01T14:13:50.005Z</time></trkpt><trkpt lat="53.80740286485321" lon="11.03302830003252"><ele>51.0</ele><time>2026-04-01T14:13:51.005Z</time></trkpt><trkpt lat="53.80750967278191" lon="11.033008027294985"><ele>51.0</ele><time>2026-04-01T14:13:53.005Z</time></trkpt><trkpt lat="53.80757689326115" lon="11.033040910469518"><ele>51.0</ele><time>2026-04-01T14:13:56.005Z</time></trkpt><trkpt lat="53.80763650873317" lon="11.032988459980562"><ele>51.0</ele><time>2026-04-01T14:14:00.005Z</time></trkpt><trkpt lat="53.80756317096041" lon="11.032974375513446"><ele>51.0</ele><time>2026-04-01T14:14:30.005Z</time></trkpt><trkpt lat="53.80750578291825" lon="11.033028055717374"><ele>51.0</ele><time>2026-04-01T14:14:35.005Z</time></trkpt><trkpt lat="53.80745915889026" lon="11.033108543333324"><ele>51.0</ele><time>2026-04-01T14:14:39.005Z</time></trkpt><trkpt lat="53.807402270661" lon="11.033159231132762"><ele>51.0</ele><time>2026-04-01T14:14:43.005Z</time></trkpt><trkpt lat="53.80733923873658" lon="11.033207469705005"><ele>51.0</ele><time>2026-04-01T14:14:47.005Z</time></trkpt><trkpt lat="53.80738919433678" lon="11.033275612544616"><ele>51.0</ele><time>2026-04-01T14:14:55.006Z</time></trkpt><trkpt lat="53.807375519773146" lon="11.033168178451167"><ele>51.0</ele><time>2026-04-01T14:19:35Z</time></trkpt><trkpt lat="53.80731772478354" lon="11.033121242716556"><ele>51.0</ele><time>2026-04-01T14:19:55Z</time></trkpt><trkpt lat="53.80726278244231" lon="11.033059815771246"><ele>51.0</ele><time>2026-04-01T14:19:58Z</time></trkpt><trkpt lat="53.80734177103442" lon="11.033037464949546"><ele>51.0</ele><time>2026-04-01T14:20:11.999Z</time></trkpt><trkpt lat="53.807409413783056" lon="11.032994846308343"><ele>51.0</ele><time>2026-04-01T14:20:18.999Z</time></trkpt><trkpt lat="53.80746732118627" lon="11.03292606207201"><ele>51.0</ele><time>2026-04-01T14:20:24.999Z</time></trkpt><trkpt lat="53.8075552622655" lon="11.032855959749124"><ele>51.0</ele><time>2026-04-01T14:21:34.999Z</time></trkpt><trkpt lat="53.807455898772986" lon="11.032810886929605"><ele>51.0</ele><time>2026-04-01T14:21:37.999Z</time></trkpt><trkpt lat="53.8073153968858" lon="11.03285173888315"><ele>51.0</ele><time>2026-04-01T14:21:39.999Z</time></trkpt><trkpt lat="53.807236330106356" lon="11.032873462773903"><ele>51.0</ele><time>2026-04-01T14:21:40.999Z</time></trkpt><trkpt lat="53.807146166888735" lon="11.032915593940444"><ele>51.0</ele><time>2026-04-01T14:21:41.999Z</time></trkpt><trkpt lat="53.807059387238596" lon="11.03291452411081"><ele>51.0</ele><time>2026-04-01T14:21:42.999Z</time></trkpt><trkpt lat="53.80695264342143" lon="11.032864184790482"><ele>51.0</ele><time>2026-04-01T14:21:43.999Z</time></trkpt><trkpt lat="53.80686188115058" lon="11.032774752751351"><ele>51.0</ele><time>2026-04-01T14:21:44.999Z</time></trkpt><trkpt lat="53.80674422121561" lon="11.032696472927588"><ele>51.0</ele><time>2026-04-01T14:21:45.999Z</time></trkpt><trkpt lat="53.80664010963482" lon="11.032662666298288"><ele>51.0</ele><time>2026-04-01T14:21:46.999Z</time></trkpt><trkpt lat="53.80653791457171" lon="11.032656627860106"><ele>51.0</ele><time>2026-04-01T14:21:47.999Z</time></trkpt><trkpt lat="53.80644987282454" lon="11.032700335718838"><ele>50.599999999999994</ele><time>2026-04-01T14:21:48.999Z</time></trkpt><trkpt lat="53.80635811989575" lon="11.032748050641066"><ele>50.2</ele><time>2026-04-01T14:21:49.999Z</time></trkpt><trkpt lat="53.806259688066945" lon="11.032817407670505"><ele>49.8</ele><time>2026-04-01T14:21:50.999Z</time></trkpt><trkpt lat="53.806164767702995" lon="11.032929155408512"><ele>49.400000000000006</ele><time>2026-04-01T14:21:51.999Z</time></trkpt><trkpt lat="53.806073469564595" lon="11.033056116561381"><ele>49.0</ele><time>2026-04-01T14:21:52.999Z</time></trkpt><trkpt lat="53.80598873599623" lon="11.033175076688677"><ele>47.99999999999999</ele><time>2026-04-01T14:21:53.999Z</time></trkpt><trkpt lat="53.80590785251399" lon="11.03326712634405"><ele>47.0</ele><time>2026-04-01T14:21:54.999Z</time></trkpt><trkpt lat="53.80584158754487" lon="11.033338392248075"><ele>46.0</ele><time>2026-04-01T14:21:55.999Z</time></trkpt><trkpt lat="53.80577600067471" lon="11.03342645957096"><ele>45.0</ele><time>2026-04-01T14:21:56.999Z</time></trkpt><trkpt lat="53.80572241950988" lon="11.033535172585019"><ele>44.0</ele><time>2026-04-01T14:21:57.999Z</time></trkpt><trkpt lat="53.80567882909994" lon="11.033651250094568"><ele>43.0</ele><time>2026-04-01T14:21:58.999Z</time></trkpt><trkpt lat="53.80563818292804" lon="11.033752094110726"><ele>43.0</ele><time>2026-04-01T14:21:59.999Z</time></trkpt><trkpt lat="53.80560379975949" lon="11.033897801672142"><ele>43.0</ele><time>2026-04-01T14:22:01.999Z</time></trkpt><trkpt lat="53.80563866098904" lon="11.034051511975706"><ele>43.0</ele><time>2026-04-01T14:22:03.999Z</time></trkpt><trkpt lat="53.80573213154163" lon="11.034155425278602"><ele>43.0</ele><time>2026-04-01T14:22:05.999Z</time></trkpt><trkpt lat="53.80583465378425" lon="11.034256950512528"><ele>43.0</ele><time>2026-04-01T14:22:07.999Z</time></trkpt><trkpt lat="53.805937220059576" lon="11.034366558862104"><ele>42.8</ele><time>2026-04-01T14:22:09.999Z</time></trkpt><trkpt lat="53.80604048499288" lon="11.034471520797629"><ele>42.599999999999994</ele><time>2026-04-01T14:22:11.999Z</time></trkpt><trkpt lat="53.806163755163716" lon="11.034503238744684"><ele>42.400000000000006</ele><time>2026-04-01T14:22:13.999Z</time></trkpt><trkpt lat="53.80622756250402" lon="11.034524056501153"><ele>42.2</ele><time>2026-04-01T14:22:14.999Z</time></trkpt><trkpt lat="53.80634270474945" lon="11.034583006878606"><ele>42.0</ele><time>2026-04-01T14:22:16.999Z</time></trkpt><trkpt lat="53.80643759453639" lon="11.034607694221458"><ele>42.0</ele><time>2026-04-01T14:22:18.999Z</time></trkpt><trkpt lat="53.80650720671858" lon="11.034603489563231"><ele>42.0</ele><time>2026-04-01T14:22:20.999Z</time></trkpt><trkpt lat="53.80659557825879" lon="11.03461433768384"><ele>42.0</ele><time>2026-04-01T14:23:34Z</time></trkpt><trkpt lat="53.80665739211684" lon="11.034640873913098"><ele>42.0</ele><time>2026-04-01T14:23:39Z</time></trkpt><trkpt lat="53.806719699399956" lon="11.03456391925392"><ele>42.0</ele><time>2026-04-01T14:23:44Z</time></trkpt><trkpt lat="53.80678571269032" lon="11.034513710303889"><ele>42.0</ele><time>2026-04-01T14:23:49Z</time></trkpt><trkpt lat="53.8068503696821" lon="11.03456750082296"><ele>42.0</ele><time>2026-04-01T14:23:55Z</time></trkpt><trkpt lat="53.806904259472624" lon="11.034653948665143"><ele>42.285714285714285</ele><time>2026-04-01T14:24:00Z</time></trkpt><trkpt lat="53.806945644018285" lon="11.034745388198601"><ele>42.57142857142857</ele><time>2026-04-01T14:24:07Z</time></trkpt><trkpt lat="53.80702015980487" lon="11.034834323380565"><ele>42.85714285714286</ele><time>2026-04-01T14:24:37.999Z</time></trkpt><trkpt lat="53.80707381635995" lon="11.03489296457119"><ele>43.14285714285714</ele><time>2026-04-01T14:24:41.999Z</time></trkpt><trkpt lat="53.80708655438864" lon="11.034787947009109"><ele>43.42857142857143</ele><time>2026-04-01T14:24:55.999Z</time></trkpt><trkpt lat="53.80712236078192" lon="11.034698270968985"><ele>43.714285714285715</ele><time>2026-04-01T14:24:59.999Z</time></trkpt><trkpt lat="53.807060201893066" lon="11.034640875297208"><ele>44.0</ele><time>2026-04-01T14:26:10.999Z</time></trkpt><trkpt lat="53.80702213919145" lon="11.034551742791407"><ele>44.0</ele><time>2026-04-01T14:26:25.999Z</time></trkpt><trkpt lat="53.80696206875996" lon="11.03449593254724"><ele>44.0</ele><time>2026-04-01T14:28:17.999Z</time></trkpt><trkpt lat="53.80688961633393" lon="11.034518747082005"><ele>44.0</ele><time>2026-04-01T14:28:22.999Z</time></trkpt><trkpt lat="53.80683365951516" lon="11.034572787410042"><ele>44.0</ele><time>2026-04-01T14:28:27.999Z</time></trkpt><trkpt lat="53.80672965856496" lon="11.034572157624426"><ele>44.0</ele><time>2026-04-01T14:30:26Z</time></trkpt><trkpt lat="53.806665666138066" lon="11.034598653916143"><ele>44.0</ele><time>2026-04-01T14:30:31Z</time></trkpt><trkpt lat="53.80660115987764" lon="11.03461785971664"><ele>44.0</ele><time>2026-04-01T14:31:28Z</time></trkpt><trkpt lat="53.80648120869937" lon="11.034523319356316"><ele>43.5</ele><time>2026-04-01T14:31:31Z</time></trkpt><trkpt lat="53.8063842928939" lon="11.034509806674784"><ele>43.0</ele><time>2026-04-01T14:31:32Z</time></trkpt><trkpt lat="53.806270491713235" lon="11.034471351828124"><ele>42.5</ele><time>2026-04-01T14:31:33Z</time></trkpt><trkpt lat="53.80614669435944" lon="11.034427406921772"><ele>42.0</ele><time>2026-04-01T14:31:34Z</time></trkpt><trkpt lat="53.806026912353325" lon="11.034370575384738"><ele>42.0</ele><time>2026-04-01T14:31:35Z</time></trkpt><trkpt lat="53.80591239592454" lon="11.034289404821317"><ele>42.0</ele><time>2026-04-01T14:31:36Z</time></trkpt><trkpt lat="53.805819897668854" lon="11.034210961235827"><ele>42.0</ele><time>2026-04-01T14:31:37Z</time></trkpt><trkpt lat="53.805723804877054" lon="11.03415864220733"><ele>42.0</ele><time>2026-04-01T14:31:38Z</time></trkpt><trkpt lat="53.80562985347079" lon="11.03414823679533"><ele>42.0</ele><time>2026-04-01T14:31:39Z</time></trkpt><trkpt lat="53.80552926964783" lon="11.034144093466582"><ele>42.0</ele><time>2026-04-01T14:31:40Z</time></trkpt><trkpt lat="53.805436410441814" lon="11.034146296739722"><ele>42.0</ele><time>2026-04-01T14:31:41Z</time></trkpt><trkpt lat="53.805365846240235" lon="11.03415790892205"><ele>42.0</ele><time>2026-04-01T14:31:42Z</time></trkpt><trkpt lat="53.8052738688338" lon="11.0341553972223"><ele>42.0</ele><time>2026-04-01T14:31:44Z</time></trkpt><trkpt lat="53.80520440439917" lon="11.03413908347441"><ele>42.0</ele><time>2026-04-01T14:31:46Z</time></trkpt><trkpt lat="53.805123706395584" lon="11.03416540759872"><ele>42.0</ele><time>2026-04-01T14:32:10Z</time></trkpt><trkpt lat="53.805039292828106" lon="11.034188191700947"><ele>41.4</ele><time>2026-04-01T14:32:13Z</time></trkpt><trkpt lat="53.80492814006669" lon="11.0341931003985"><ele>40.800000000000004</ele><time>2026-04-01T14:32:25Z</time></trkpt><trkpt lat="53.80483999228325" lon="11.034207331085033"><ele>40.2</ele><time>2026-04-01T14:32:26Z</time></trkpt><trkpt lat="53.8047518051869" lon="11.034227704751252"><ele>39.6</ele><time>2026-04-01T14:32:27Z</time></trkpt><trkpt lat="53.80465995160481" lon="11.034251898632528"><ele>39.0</ele><time>2026-04-01T14:32:28Z</time></trkpt><trkpt lat="53.80456186946592" lon="11.034271896920625"><ele>39.0</ele><time>2026-04-01T14:32:29Z</time></trkpt><trkpt lat="53.8044673422599" lon="11.034295426246333"><ele>39.0</ele><time>2026-04-01T14:32:30Z</time></trkpt><trkpt lat="53.80438718416081" lon="11.034329422584964"><ele>39.0</ele><time>2026-04-01T14:32:31Z</time></trkpt><trkpt lat="53.80430654807966" lon="11.034367565181181"><ele>39.0</ele><time>2026-04-01T14:32:32Z</time></trkpt><trkpt lat="53.80422763794858" lon="11.034403621538486"><ele>39.0</ele><time>2026-04-01T14:32:33Z</time></trkpt><trkpt lat="53.804106215866234" lon="11.034417714039382"><ele>38.6</ele><time>2026-04-01T14:32:34Z</time></trkpt><trkpt lat="53.80402678655977" lon="11.034455688116715"><ele>38.2</ele><time>2026-04-01T14:32:35Z</time></trkpt><trkpt lat="53.80392178225871" lon="11.034488816605036"><ele>37.800000000000004</ele><time>2026-04-01T14:32:36Z</time></trkpt><trkpt lat="53.80380383630055" lon="11.034513515545553"><ele>37.4</ele><time>2026-04-01T14:32:37Z</time></trkpt><trkpt lat="53.80368029573507" lon="11.034532957463293"><ele>37.0</ele><time>2026-04-01T14:32:38Z</time></trkpt><trkpt lat="53.80357063705197" lon="11.034569079511709"><ele>37.0</ele><time>2026-04-01T14:32:39Z</time></trkpt><trkpt lat="53.80346308943431" lon="11.034601840375801"><ele>37.0</ele><time>2026-04-01T14:32:40Z</time></trkpt><trkpt lat="53.80334485711976" lon="11.034639934421145"><ele>37.0</ele><time>2026-04-01T14:32:41Z</time></trkpt><trkpt lat="53.803246143248955" lon="11.034668166063064"><ele>37.0</ele><time>2026-04-01T14:32:42Z</time></trkpt><trkpt lat="53.80314714566033" lon="11.034659357326513"><ele>37.0</ele><time>2026-04-01T14:32:43Z</time></trkpt><trkpt lat="53.80303852952205" lon="11.034650251396267"><ele>37.0</ele><time>2026-04-01T14:32:44Z</time></trkpt><trkpt lat="53.80292930934334" lon="11.034640659805916"><ele>37.0</ele><time>2026-04-01T14:32:45Z</time></trkpt><trkpt lat="53.80281388587392" lon="11.034639312931398"><ele>37.0</ele><time>2026-04-01T14:32:46Z</time></trkpt><trkpt lat="53.80269570276581" lon="11.034650808652223"><ele>37.0</ele><time>2026-04-01T14:32:47Z</time></trkpt><trkpt lat="53.802582528444034" lon="11.034646092385062"><ele>36.5</ele><time>2026-04-01T14:32:48Z</time></trkpt><trkpt lat="53.80246668600362" lon="11.034643576784946"><ele>36.0</ele><time>2026-04-01T14:32:49Z</time></trkpt><trkpt lat="53.80235221772846" lon="11.034634439596191"><ele>35.5</ele><time>2026-04-01T14:32:50Z</time></trkpt><trkpt lat="53.80223462189293" lon="11.03462672934997"><ele>35.0</ele><time>2026-04-01T14:32:51Z</time></trkpt><trkpt lat="53.802116164583886" lon="11.034611738293444"><ele>35.0</ele><time>2026-04-01T14:32:52Z</time></trkpt><trkpt lat="53.80200004625072" lon="11.034604614064106"><ele>35.0</ele><time>2026-04-01T14:32:53Z</time></trkpt><trkpt lat="53.80188980622786" lon="11.034590410935134"><ele>35.0</ele><time>2026-04-01T14:32:54Z</time></trkpt><trkpt lat="53.80179601920518" lon="11.034574856772837"><ele>35.0</ele><time>2026-04-01T14:32:55Z</time></trkpt><trkpt lat="53.801730647515164" lon="11.034574838606568"><ele>35.0</ele><time>2026-04-01T14:32:56Z</time></trkpt><trkpt lat="53.80166582329655" lon="11.034570000556169"><ele>35.33333333333333</ele><time>2026-04-01T14:33:00Z</time></trkpt><trkpt lat="53.801547960157635" lon="11.034582662130378"><ele>35.666666666666664</ele><time>2026-04-01T14:33:17Z</time></trkpt><trkpt lat="53.80148229206765" lon="11.034588468985564"><ele>36.0</ele><time>2026-04-01T14:33:18Z</time></trkpt><trkpt lat="53.80141336235532" lon="11.034588029417723"><ele>36.333333333333336</ele><time>2026-04-01T14:33:19Z</time></trkpt><trkpt lat="53.80133954913678" lon="11.034589111022136"><ele>36.66666666666667</ele><time>2026-04-01T14:33:20Z</time></trkpt><trkpt lat="53.80126240590899" lon="11.034588570187594"><ele>37.0</ele><time>2026-04-01T14:33:21Z</time></trkpt><trkpt lat="53.80118444188624" lon="11.034580526059385"><ele>37.0</ele><time>2026-04-01T14:33:22Z</time></trkpt><trkpt lat="53.80110587066837" lon="11.034573564637428"><ele>37.0</ele><time>2026-04-01T14:33:23Z</time></trkpt><trkpt lat="53.80102816065861" lon="11.03460130680876"><ele>37.0</ele><time>2026-04-01T14:33:24Z</time></trkpt><trkpt lat="53.80094989502898" lon="11.034601442355562"><ele>37.0</ele><time>2026-04-01T14:33:25Z</time></trkpt><trkpt lat="53.80086964102961" lon="11.034599172068548"><ele>37.0</ele><time>2026-04-01T14:33:26Z</time></trkpt><trkpt lat="53.80078087587558" lon="11.034608270084519"><ele>37.0</ele><time>2026-04-01T14:33:26.999Z</time></trkpt><trkpt lat="53.80068215038749" lon="11.034586592676867"><ele>36.6</ele><time>2026-04-01T14:33:27.999Z</time></trkpt><trkpt lat="53.80057576016893" lon="11.034593074473088"><ele>36.2</ele><time>2026-04-01T14:33:28.999Z</time></trkpt><trkpt lat="53.80046881997208" lon="11.034623809002602"><ele>35.8</ele><time>2026-04-01T14:33:29.999Z</time></trkpt><trkpt lat="53.80036156457046" lon="11.03462783085082"><ele>35.4</ele><time>2026-04-01T14:33:30.999Z</time></trkpt><trkpt lat="53.80025863898159" lon="11.034634391672837"><ele>35.0</ele><time>2026-04-01T14:33:31.999Z</time></trkpt><trkpt lat="53.80015853656908" lon="11.034615131095952"><ele>34.4</ele><time>2026-04-01T14:33:32.999Z</time></trkpt><trkpt lat="53.80005992467526" lon="11.034636758034406"><ele>33.8</ele><time>2026-04-01T14:33:33.999Z</time></trkpt><trkpt lat="53.79996464288138" lon="11.03466583495133"><ele>33.2</ele><time>2026-04-01T14:33:34.999Z</time></trkpt><trkpt lat="53.799875223460255" lon="11.034735394200633"><ele>32.6</ele><time>2026-04-01T14:33:35.999Z</time></trkpt><trkpt lat="53.7997812760466" lon="11.03478147728575"><ele>32.0</ele><time>2026-04-01T14:33:36.999Z</time></trkpt><trkpt lat="53.79968270648729" lon="11.034818166412757"><ele>32.0</ele><time>2026-04-01T14:33:37.999Z</time></trkpt><trkpt lat="53.799588421305124" lon="11.0348786160504"><ele>32.0</ele><time>2026-04-01T14:33:38.999Z</time></trkpt><trkpt lat="53.7994963399396" lon="11.034964832761187"><ele>32.0</ele><time>2026-04-01T14:33:39.999Z</time></trkpt><trkpt lat="53.79940290440638" lon="11.035042002231878"><ele>32.0</ele><time>2026-04-01T14:33:40.999Z</time></trkpt><trkpt lat="53.79930940773706" lon="11.035115938553272"><ele>32.0</ele><time>2026-04-01T14:33:41.999Z</time></trkpt><trkpt lat="53.79921918748924" lon="11.035181621180623"><ele>31.8</ele><time>2026-04-01T14:33:42.999Z</time></trkpt><trkpt lat="53.799136783271834" lon="11.03527087815543"><ele>31.6</ele><time>2026-04-01T14:33:43.999Z</time></trkpt><trkpt lat="53.79905841480791" lon="11.035373316013704"><ele>31.400000000000002</ele><time>2026-04-01T14:33:44.999Z</time></trkpt><trkpt lat="53.79898296565321" lon="11.035487098058184"><ele>31.200000000000003</ele><time>2026-04-01T14:33:45.999Z</time></trkpt><trkpt lat="53.79891388436166" lon="11.035617967082944"><ele>31.0</ele><time>2026-04-01T14:33:46.999Z</time></trkpt><trkpt lat="53.7988547160915" lon="11.03575629447945"><ele>30.8</ele><time>2026-04-01T14:33:47.999Z</time></trkpt><trkpt lat="53.798798001881856" lon="11.035884668409233"><ele>30.6</ele><time>2026-04-01T14:33:48.999Z</time></trkpt><trkpt lat="53.79874007503647" lon="11.036002124425599"><ele>30.4</ele><time>2026-04-01T14:33:49.999Z</time></trkpt><trkpt lat="53.7986736909082" lon="11.036102429814266"><ele>30.2</ele><time>2026-04-01T14:33:50.999Z</time></trkpt><trkpt lat="53.79859573016364" lon="11.036176125861477"><ele>30.0</ele><time>2026-04-01T14:33:51.999Z</time></trkpt><trkpt lat="53.79850555347454" lon="11.036214420815057"><ele>29.5</ele><time>2026-04-01T14:33:52.999Z</time></trkpt><trkpt lat="53.7984009583063" lon="11.036214460491054"><ele>29.0</ele><time>2026-04-01T14:33:53.999Z</time></trkpt><trkpt lat="53.7982882506945" lon="11.03617677052882"><ele>28.5</ele><time>2026-04-01T14:33:54.999Z</time></trkpt><trkpt lat="53.798169926778144" lon="11.036153326611789"><ele>28.0</ele><time>2026-04-01T14:33:55.999Z</time></trkpt><trkpt lat="53.79805003545286" lon="11.036157068333637"><ele>28.0</ele><time>2026-04-01T14:33:56.999Z</time></trkpt><trkpt lat="53.797930019103255" lon="11.036193498766373"><ele>28.0</ele><time>2026-04-01T14:33:57.999Z</time></trkpt><trkpt lat="53.79780618784858" lon="11.03625093867077"><ele>28.0</ele><time>2026-04-01T14:33:58.999Z</time></trkpt><trkpt lat="53.79767807084054" lon="11.036324047347671"><ele>28.0</ele><time>2026-04-01T14:33:59.999Z</time></trkpt><trkpt lat="53.797543908462735" lon="11.03642000493186"><ele>28.0</ele><time>2026-04-01T14:34:00.999Z</time></trkpt><trkpt lat="53.79740377021096" lon="11.036524077153206"><ele>28.0</ele><time>2026-04-01T14:34:01.999Z</time></trkpt><trkpt lat="53.79725541286302" lon="11.036616925440903"><ele>28.0</ele><time>2026-04-01T14:34:02.999Z</time></trkpt><trkpt lat="53.797097369658815" lon="11.036709484424398"><ele>27.333333333333336</ele><time>2026-04-01T14:34:03.999Z</time></trkpt><trkpt lat="53.796940777836994" lon="11.036812859999214"><ele>26.666666666666664</ele><time>2026-04-01T14:34:04.999Z</time></trkpt><trkpt lat="53.79677583125962" lon="11.036886157858527"><ele>26.0</ele><time>2026-04-01T14:34:05.999Z</time></trkpt><trkpt lat="53.7966188764728" lon="11.036961714928427"><ele>26.0</ele><time>2026-04-01T14:34:06.999Z</time></trkpt><trkpt lat="53.796455479470204" lon="11.037063302864048"><ele>26.0</ele><time>2026-04-01T14:34:07.999Z</time></trkpt><trkpt lat="53.79628500216039" lon="11.037157932210679"><ele>26.0</ele><time>2026-04-01T14:34:08.999Z</time></trkpt><trkpt lat="53.79611778976568" lon="11.037255541601334"><ele>25.666666666666664</ele><time>2026-04-01T14:34:09.999Z</time></trkpt><trkpt lat="53.79595017477133" lon="11.037361922306202"><ele>25.333333333333336</ele><time>2026-04-01T14:34:10.999Z</time></trkpt><trkpt lat="53.79577356640632" lon="11.037463333440904"><ele>25.0</ele><time>2026-04-01T14:34:11.999Z</time></trkpt><trkpt lat="53.795614890242554" lon="11.037562136153536"><ele>25.0</ele><time>2026-04-01T14:34:12.999Z</time></trkpt><trkpt lat="53.79545201554535" lon="11.037641601739287"><ele>25.0</ele><time>2026-04-01T14:34:13.999Z</time></trkpt><trkpt lat="53.79528823483131" lon="11.037708760297008"><ele>25.0</ele><time>2026-04-01T14:34:14.999Z</time></trkpt><trkpt lat="53.79511662869443" lon="11.037711583069772"><ele>24.333333333333336</ele><time>2026-04-01T14:34:15.999Z</time></trkpt><trkpt lat="53.79492880013545" lon="11.037660512701626"><ele>23.666666666666668</ele><time>2026-04-01T14:34:16.999Z</time></trkpt><trkpt lat="53.7947383582112" lon="11.037595039322564"><ele>23.0</ele><time>2026-04-01T14:34:17.999Z</time></trkpt><trkpt lat="53.794540781750655" lon="11.037528632063058"><ele>23.0</ele><time>2026-04-01T14:34:18.999Z</time></trkpt><trkpt lat="53.79434156554733" lon="11.03749180696517"><ele>23.0</ele><time>2026-04-01T14:34:19.999Z</time></trkpt><trkpt lat="53.79414785820405" lon="11.03748629790511"><ele>23.0</ele><time>2026-04-01T14:34:20.999Z</time></trkpt><trkpt lat="53.79395867221202" lon="11.037534319799494"><ele>22.666666666666668</ele><time>2026-04-01T14:34:21.999Z</time></trkpt><trkpt lat="53.79377556162842" lon="11.03762106169778"><ele>22.333333333333332</ele><time>2026-04-01T14:34:22.999Z</time></trkpt><trkpt lat="53.79359896342744" lon="11.037742392819743"><ele>22.0</ele><time>2026-04-01T14:34:23.999Z</time></trkpt><trkpt lat="53.79343353141997" lon="11.037884721000493"><ele>22.0</ele><time>2026-04-01T14:34:24.999Z</time></trkpt><trkpt lat="53.79326743468394" lon="11.03802807880401"><ele>22.0</ele><time>2026-04-01T14:34:25.999Z</time></trkpt><trkpt lat="53.79310714301355" lon="11.03817420609226"><ele>22.0</ele><time>2026-04-01T14:34:26.999Z</time></trkpt><trkpt lat="53.79295024497944" lon="11.038320371700065"><ele>22.333333333333332</ele><time>2026-04-01T14:34:27.999Z</time></trkpt><trkpt lat="53.79280174585035" lon="11.038466780126015"><ele>22.666666666666668</ele><time>2026-04-01T14:34:28.999Z</time></trkpt><trkpt lat="53.79264274645766" lon="11.038679362472353"><ele>23.0</ele><time>2026-04-01T14:34:29.999Z</time></trkpt><trkpt lat="53.79253522870484" lon="11.038897120722478"><ele>22.333333333333336</ele><time>2026-04-01T14:34:30.999Z</time></trkpt><trkpt lat="53.79245437333111" lon="11.039191491584841"><ele>21.666666666666668</ele><time>2026-04-01T14:34:31.999Z</time></trkpt><trkpt lat="53.79233839442454" lon="11.039441107193161"><ele>21.0</ele><time>2026-04-01T14:34:32.999Z</time></trkpt><trkpt lat="53.79223762074083" lon="11.03971283454902"><ele>21.0</ele><time>2026-04-01T14:34:33.999Z</time></trkpt><trkpt lat="53.79212316277077" lon="11.039938989578955"><ele>21.0</ele><time>2026-04-01T14:34:34.999Z</time></trkpt><trkpt lat="53.7920017514919" lon="11.04017601193235"><ele>21.0</ele><time>2026-04-01T14:34:35.999Z</time></trkpt><trkpt lat="53.791870783671456" lon="11.040386810151244"><ele>21.0</ele><time>2026-04-01T14:34:36.999Z</time></trkpt><trkpt lat="53.791747739497254" lon="11.040596858859463"><ele>21.0</ele><time>2026-04-01T14:34:37.999Z</time></trkpt><trkpt lat="53.79160703381829" lon="11.04078762138428"><ele>21.0</ele><time>2026-04-01T14:34:38.999Z</time></trkpt><trkpt lat="53.79144377259035" lon="11.040920283647013"><ele>21.0</ele><time>2026-04-01T14:34:39.999Z</time></trkpt><trkpt lat="53.79128531989639" lon="11.041044403029987"><ele>21.0</ele><time>2026-04-01T14:34:40.999Z</time></trkpt><trkpt lat="53.791134234871585" lon="11.041178862723738"><ele>21.0</ele><time>2026-04-01T14:34:41.999Z</time></trkpt><trkpt lat="53.79098600847096" lon="11.041318230924594"><ele>22.0</ele><time>2026-04-01T14:34:42.999Z</time></trkpt><trkpt lat="53.79083795072895" lon="11.041458316449829"><ele>23.0</ele><time>2026-04-01T14:34:43.999Z</time></trkpt><trkpt lat="53.79069465303161" lon="11.041595975926212"><ele>24.0</ele><time>2026-04-01T14:34:44.999Z</time></trkpt><trkpt lat="53.79055442301147" lon="11.0417301471953"><ele>24.0</ele><time>2026-04-01T14:34:45.999Z</time></trkpt><trkpt lat="53.79041668860436" lon="11.041863018997955"><ele>24.0</ele><time>2026-04-01T14:34:46.999Z</time></trkpt><trkpt lat="53.79026429469951" lon="11.041991617914542"><ele>24.0</ele><time>2026-04-01T14:34:47.999Z</time></trkpt><trkpt lat="53.790115284516965" lon="11.042124701436649"><ele>25.0</ele><time>2026-04-01T14:34:48.999Z</time></trkpt><trkpt lat="53.78998050741529" lon="11.042287779400551"><ele>26.0</ele><time>2026-04-01T14:34:49.999Z</time></trkpt><trkpt lat="53.789876951319684" lon="11.042479448135882"><ele>27.0</ele><time>2026-04-01T14:34:50.999Z</time></trkpt><trkpt lat="53.78977381600421" lon="11.042652206275745"><ele>27.0</ele><time>2026-04-01T14:34:51.999Z</time></trkpt><trkpt lat="53.78966964215446" lon="11.042816541020187"><ele>27.0</ele><time>2026-04-01T14:34:52.999Z</time></trkpt><trkpt lat="53.78956399913437" lon="11.042977479693942"><ele>27.0</ele><time>2026-04-01T14:34:53.999Z</time></trkpt><trkpt lat="53.789462077832695" lon="11.043139045631422"><ele>27.0</ele><time>2026-04-01T14:34:54.999Z</time></trkpt><trkpt lat="53.789370275087066" lon="11.043305153427298"><ele>27.25</ele><time>2026-04-01T14:34:55.999Z</time></trkpt><trkpt lat="53.789274874459664" lon="11.043465479986722"><ele>27.5</ele><time>2026-04-01T14:34:56.999Z</time></trkpt><trkpt lat="53.78918702435244" lon="11.043613484557152"><ele>27.75</ele><time>2026-04-01T14:34:57.999Z</time></trkpt><trkpt lat="53.7890959358561" lon="11.043764671867999"><ele>28.0</ele><time>2026-04-01T14:34:58.999Z</time></trkpt><trkpt lat="53.78900829971471" lon="11.043911200215963"><ele>28.000000000000004</ele><time>2026-04-01T14:34:59.999Z</time></trkpt><trkpt lat="53.7889248748553" lon="11.044047006719408"><ele>28.0</ele><time>2026-04-01T14:35:00.999Z</time></trkpt><trkpt lat="53.788852975669684" lon="11.04415519227314"><ele>28.0</ele><time>2026-04-01T14:35:01.999Z</time></trkpt><trkpt lat="53.78879956359702" lon="11.044246837130713"><ele>28.0</ele><time>2026-04-01T14:35:02.999Z</time></trkpt><trkpt lat="53.7887605769906" lon="11.04415803491167"><ele>28.000000000000004</ele><time>2026-04-01T14:35:04.999Z</time></trkpt><trkpt lat="53.78870874264561" lon="11.04406958170441"><ele>28.0</ele><time>2026-04-01T14:35:05.999Z</time></trkpt><trkpt lat="53.78865430381471" lon="11.043981418142371"><ele>28.000000000000004</ele><time>2026-04-01T14:35:06.999Z</time></trkpt><trkpt lat="53.788599426267695" lon="11.043883719424791"><ele>28.0</ele><time>2026-04-01T14:35:07.999Z</time></trkpt><trkpt lat="53.7885422047528" lon="11.043776366515498"><ele>28.0</ele><time>2026-04-01T14:35:08.999Z</time></trkpt><trkpt lat="53.788486601024125" lon="11.043671329492252"><ele>28.0</ele><time>2026-04-01T14:35:09.999Z</time></trkpt><trkpt lat="53.78843261611638" lon="11.043569014188625"><ele>28.000000000000004</ele><time>2026-04-01T14:35:10.999Z</time></trkpt><trkpt lat="53.78837749077238" lon="11.043464537755286"><ele>28.0</ele><time>2026-04-01T14:35:11.999Z</time></trkpt><trkpt lat="53.788315523775076" lon="11.043381675477068"><ele>28.2</ele><time>2026-04-01T14:35:12.999Z</time></trkpt><trkpt lat="53.78828105816331" lon="11.043291955379887"><ele>28.4</ele><time>2026-04-01T14:35:13.999Z</time></trkpt><trkpt lat="53.78824126124807" lon="11.043179603781184"><ele>28.599999999999998</ele><time>2026-04-01T14:35:15.999Z</time></trkpt><trkpt lat="53.788215431161476" lon="11.043069138220174"><ele>28.799999999999997</ele><time>2026-04-01T14:35:18.999Z</time></trkpt><trkpt lat="53.78805968270292" lon="11.043148146220355"><ele>29.0</ele><time>2026-04-01T14:35:20.999Z</time></trkpt><trkpt lat="53.78796680069283" lon="11.0432386382981"><ele>29.0</ele><time>2026-04-01T14:35:21.999Z</time></trkpt><trkpt lat="53.787859647558825" lon="11.043312853044473"><ele>29.0</ele><time>2026-04-01T14:35:22.999Z</time></trkpt><trkpt lat="53.78774583756461" lon="11.043383036029487"><ele>29.0</ele><time>2026-04-01T14:35:23.999Z</time></trkpt><trkpt lat="53.78762320527519" lon="11.04344545729208"><ele>29.0</ele><time>2026-04-01T14:35:24.999Z</time></trkpt><trkpt lat="53.78749270612285" lon="11.043499997464776"><ele>28.25</ele><time>2026-04-01T14:35:25.999Z</time></trkpt><trkpt lat="53.78735980059004" lon="11.043560779013411"><ele>27.5</ele><time>2026-04-01T14:35:26.999Z</time></trkpt><trkpt lat="53.787220679787126" lon="11.043641468503708"><ele>26.75</ele><time>2026-04-01T14:35:27.999Z</time></trkpt><trkpt lat="53.78707102198021" lon="11.043664858929095"><ele>26.0</ele><time>2026-04-01T14:35:28.999Z</time></trkpt><trkpt lat="53.78692045693771" lon="11.043704442513208"><ele>25.666666666666664</ele><time>2026-04-01T14:35:29.999Z</time></trkpt><trkpt lat="53.78676615537924" lon="11.043733672265805"><ele>25.333333333333336</ele><time>2026-04-01T14:35:30.999Z</time></trkpt><trkpt lat="53.78660977800511" lon="11.043756499026511"><ele>25.0</ele><time>2026-04-01T14:35:31.999Z</time></trkpt><trkpt lat="53.78642282259062" lon="11.043763560971389"><ele>25.0</ele><time>2026-04-01T14:35:32.999Z</time></trkpt><trkpt lat="53.7862435530126" lon="11.043774131849746"><ele>25.0</ele><time>2026-04-01T14:35:33.999Z</time></trkpt><trkpt lat="53.786076304893406" lon="11.043751559684443"><ele>25.0</ele><time>2026-04-01T14:35:34.999Z</time></trkpt><trkpt lat="53.78592051269074" lon="11.043752222694883"><ele>24.666666666666668</ele><time>2026-04-01T14:35:35.999Z</time></trkpt><trkpt lat="53.78576588073022" lon="11.043767150229185"><ele>24.333333333333336</ele><time>2026-04-01T14:35:36.999Z</time></trkpt><trkpt lat="53.78561090575967" lon="11.043780220659881"><ele>24.0</ele><time>2026-04-01T14:35:37.999Z</time></trkpt><trkpt lat="53.785451639619566" lon="11.043850270367972"><ele>24.0</ele><time>2026-04-01T14:35:38.999Z</time></trkpt><trkpt lat="53.7853197710506" lon="11.043865643091655"><ele>24.0</ele><time>2026-04-01T14:35:39.999Z</time></trkpt><trkpt lat="53.78518639325629" lon="11.043878050188113"><ele>24.0</ele><time>2026-04-01T14:35:40.999Z</time></trkpt><trkpt lat="53.785057673038644" lon="11.043854966661732"><ele>24.0</ele><time>2026-04-01T14:35:41.999Z</time></trkpt><trkpt lat="53.78491353342061" lon="11.043853774943491"><ele>23.666666666666668</ele><time>2026-04-01T14:35:42.999Z</time></trkpt><trkpt lat="53.784737601832276" lon="11.0438385716878"><ele>23.333333333333336</ele><time>2026-04-01T14:35:43.999Z</time></trkpt><trkpt lat="53.78457582458341" lon="11.043852459488617"><ele>23.0</ele><time>2026-04-01T14:35:44.999Z</time></trkpt><trkpt lat="53.78442669882623" lon="11.043879793666258"><ele>22.75</ele><time>2026-04-01T14:35:45.999Z</time></trkpt><trkpt lat="53.7842766852012" lon="11.043913799609314"><ele>22.5</ele><time>2026-04-01T14:35:46.999Z</time></trkpt><trkpt lat="53.78412180743517" lon="11.043939934619168"><ele>22.25</ele><time>2026-04-01T14:35:47.999Z</time></trkpt><trkpt lat="53.78399768426373" lon="11.043933108367696"><ele>22.0</ele><time>2026-04-01T14:35:48.999Z</time></trkpt><trkpt lat="53.78386126034228" lon="11.043941245846014"><ele>22.0</ele><time>2026-04-01T14:35:49.999Z</time></trkpt><trkpt lat="53.783723711422475" lon="11.043935919318882"><ele>22.0</ele><time>2026-04-01T14:35:50.999Z</time></trkpt><trkpt lat="53.78358734241947" lon="11.043932707283286"><ele>22.0</ele><time>2026-04-01T14:35:51.999Z</time></trkpt><trkpt lat="53.783447982698576" lon="11.043963365968873"><ele>22.0</ele><time>2026-04-01T14:35:52.999Z</time></trkpt><trkpt lat="53.783301844575355" lon="11.044012417251855"><ele>21.666666666666664</ele><time>2026-04-01T14:35:53.999Z</time></trkpt><trkpt lat="53.783131539783305" lon="11.044031263053144"><ele>21.333333333333332</ele><time>2026-04-01T14:35:54.999Z</time></trkpt><trkpt lat="53.78298842804468" lon="11.044046515640057"><ele>21.0</ele><time>2026-04-01T14:35:55.999Z</time></trkpt><trkpt lat="53.78284439750757" lon="11.044034795942332"><ele>21.0</ele><time>2026-04-01T14:35:56.999Z</time></trkpt><trkpt lat="53.782706376972875" lon="11.044039044403984"><ele>21.0</ele><time>2026-04-01T14:35:57.999Z</time></trkpt><trkpt lat="53.78256266528008" lon="11.044061793682086"><ele>21.0</ele><time>2026-04-01T14:35:58.999Z</time></trkpt><trkpt lat="53.78243848213453" lon="11.044090212683516"><ele>21.0</ele><time>2026-04-01T14:35:59.999Z</time></trkpt><trkpt lat="53.78231739146985" lon="11.044148168089887"><ele>21.0</ele><time>2026-04-01T14:36:00.999Z</time></trkpt><trkpt lat="53.78220453348838" lon="11.044202039004487"><ele>21.0</ele><time>2026-04-01T14:36:01.999Z</time></trkpt><trkpt lat="53.78211979933162" lon="11.044294108289144"><ele>21.0</ele><time>2026-04-01T14:36:02.999Z</time></trkpt><trkpt lat="53.782047478639115" lon="11.04439045073248"><ele>21.0</ele><time>2026-04-01T14:36:03.999Z</time></trkpt><trkpt lat="53.781995167820114" lon="11.04448622846903"><ele>21.0</ele><time>2026-04-01T14:36:04.999Z</time></trkpt><trkpt lat="53.78196418086316" lon="11.044589185974901"><ele>21.0</ele><time>2026-04-01T14:36:05.999Z</time></trkpt><trkpt lat="53.78191416097574" lon="11.044794157993387"><ele>21.0</ele><time>2026-04-01T14:36:07.999Z</time></trkpt><trkpt lat="53.78184919691051" lon="11.044942269234186"><ele>21.0</ele><time>2026-04-01T14:36:09.999Z</time></trkpt><trkpt lat="53.78180701537257" lon="11.045035283720743"><ele>21.0</ele><time>2026-04-01T14:36:25.999Z</time></trkpt><trkpt lat="53.78176754101021" lon="11.04523033630977"><ele>21.0</ele><time>2026-04-01T14:36:27.999Z</time></trkpt><trkpt lat="53.78174629374127" lon="11.04533327808727"><ele>20.833333333333332</ele><time>2026-04-01T14:36:28.999Z</time></trkpt><trkpt lat="53.78170414606483" lon="11.045425093324583"><ele>20.666666666666668</ele><time>2026-04-01T14:36:29.999Z</time></trkpt><trkpt lat="53.78163224323168" lon="11.045581838161146"><ele>20.5</ele><time>2026-04-01T14:36:31.999Z</time></trkpt><trkpt lat="53.78155785667077" lon="11.045693357469908"><ele>20.333333333333336</ele><time>2026-04-01T14:36:32.999Z</time></trkpt><trkpt lat="53.781490021230034" lon="11.045768504567464"><ele>20.166666666666668</ele><time>2026-04-01T14:36:33.999Z</time></trkpt><trkpt lat="53.78145114329205" lon="11.045886701709218"><ele>20.0</ele><time>2026-04-01T14:36:34.999Z</time></trkpt><trkpt lat="53.7814364017035" lon="11.046027590645577"><ele>20.4</ele><time>2026-04-01T14:36:35.999Z</time></trkpt><trkpt lat="53.78138337448517" lon="11.046178415905134"><ele>20.8</ele><time>2026-04-01T14:36:36.999Z</time></trkpt><trkpt lat="53.781363444035975" lon="11.046355069867488"><ele>21.200000000000003</ele><time>2026-04-01T14:36:37.999Z</time></trkpt><trkpt lat="53.78132073222621" lon="11.046494089880916"><ele>21.6</ele><time>2026-04-01T14:36:38.999Z</time></trkpt><trkpt lat="53.78128857703715" lon="11.046639066698406"><ele>22.0</ele><time>2026-04-01T14:36:39.999Z</time></trkpt><trkpt lat="53.78129811373637" lon="11.046758226205437"><ele>22.200000000000003</ele><time>2026-04-01T14:36:40.999Z</time></trkpt><trkpt lat="53.781280970775335" lon="11.046881271133685"><ele>22.4</ele><time>2026-04-01T14:36:41.999Z</time></trkpt><trkpt lat="53.78125373962115" lon="11.047083319491184"><ele>22.6</ele><time>2026-04-01T14:36:43.999Z</time></trkpt><trkpt lat="53.78122914443005" lon="11.047281321895618"><ele>22.799999999999997</ele><time>2026-04-01T14:36:45.999Z</time></trkpt><trkpt lat="53.78121348943519" lon="11.04740807818132"><ele>23.0</ele><time>2026-04-01T14:36:46.999Z</time></trkpt><trkpt lat="53.78119855781815" lon="11.04752918063229"><ele>23.4</ele><time>2026-04-01T14:36:47.999Z</time></trkpt><trkpt lat="53.78118229667072" lon="11.047661065543899"><ele>23.799999999999997</ele><time>2026-04-01T14:36:48.999Z</time></trkpt><trkpt lat="53.78116888489549" lon="11.047769840857061"><ele>24.2</ele><time>2026-04-01T14:36:49.999Z</time></trkpt><trkpt lat="53.781153364840335" lon="11.047901540471479"><ele>24.6</ele><time>2026-04-01T14:36:50.999Z</time></trkpt><trkpt lat="53.781113596436064" lon="11.048183999252599"><ele>25.0</ele><time>2026-04-01T14:36:52.999Z</time></trkpt><trkpt lat="53.781090683001224" lon="11.048305504965956"><ele>25.166666666666668</ele><time>2026-04-01T14:36:53.999Z</time></trkpt><trkpt lat="53.78105286542386" lon="11.048432150909782"><ele>25.333333333333336</ele><time>2026-04-01T14:36:54.999Z</time></trkpt><trkpt lat="53.780984068637295" lon="11.0485024511779"><ele>25.5</ele><time>2026-04-01T14:36:55.999Z</time></trkpt><trkpt lat="53.78093312018353" lon="11.048605581433389"><ele>25.666666666666664</ele><time>2026-04-01T14:36:56.999Z</time></trkpt><trkpt lat="53.780877171938805" lon="11.048697855384544"><ele>25.833333333333332</ele><time>2026-04-01T14:36:57.999Z</time></trkpt><trkpt lat="53.780810707762114" lon="11.048764590392183"><ele>26.0</ele><time>2026-04-01T14:36:58.998Z</time></trkpt><trkpt lat="53.78075079181653" lon="11.048820834379312"><ele>25.999999999999996</ele><time>2026-04-01T14:36:59.998Z</time></trkpt><trkpt lat="53.78069705211343" lon="11.048896888629798"><ele>26.0</ele><time>2026-04-01T14:37:00.998Z</time></trkpt><trkpt lat="53.78059660529951" lon="11.049002776169113"><ele>26.0</ele><time>2026-04-01T14:37:02.998Z</time></trkpt><trkpt lat="53.780534307309516" lon="11.04902330572189"><ele>26.0</ele><time>2026-04-01T14:37:03.998Z</time></trkpt><trkpt lat="53.780453806470135" lon="11.049076740767797"><ele>25.999999999999996</ele><time>2026-04-01T14:37:05.998Z</time></trkpt><trkpt lat="53.78039670330266" lon="11.049138649055497"><ele>26.0</ele><time>2026-04-01T14:37:06.998Z</time></trkpt><trkpt lat="53.78032059765181" lon="11.04913635476725"><ele>25.999999999999996</ele><time>2026-04-01T14:37:07.998Z</time></trkpt><trkpt lat="53.78026178184012" lon="11.04919133995223"><ele>26.0</ele><time>2026-04-01T14:37:08.998Z</time></trkpt><trkpt lat="53.78019451573075" lon="11.049227062913454"><ele>26.0</ele><time>2026-04-01T14:37:09.998Z</time></trkpt><trkpt lat="53.780117509024954" lon="11.049220584539245"><ele>26.0</ele><time>2026-04-01T14:37:10.998Z</time></trkpt><trkpt lat="53.78003444125313" lon="11.049275774913571"><ele>25.999999999999996</ele><time>2026-04-01T14:37:11.998Z</time></trkpt><trkpt lat="53.779938600718424" lon="11.049347468991268"><ele>26.0</ele><time>2026-04-01T14:37:12.998Z</time></trkpt><trkpt lat="53.77984585705476" lon="11.049418306655278"><ele>26.0</ele><time>2026-04-01T14:37:13.998Z</time></trkpt><trkpt lat="53.77977059181783" lon="11.049493329418556"><ele>26.0</ele><time>2026-04-01T14:37:14.998Z</time></trkpt><trkpt lat="53.77966480681852" lon="11.04952071051342"><ele>26.0</ele><time>2026-04-01T14:37:16.998Z</time></trkpt><trkpt lat="53.7795509896395" lon="11.049551418663238"><ele>26.0</ele><time>2026-04-01T14:37:28.999Z</time></trkpt><trkpt lat="53.77946472305376" lon="11.049652080080307"><ele>26.0</ele><time>2026-04-01T14:37:29.999Z</time></trkpt><trkpt lat="53.77946644662943" lon="11.049776599977465"><ele>25.999999999999996</ele><time>2026-04-01T14:37:30.999Z</time></trkpt><trkpt lat="53.77947217835606" lon="11.04990094646319"><ele>26.0</ele><time>2026-04-01T14:37:31.999Z</time></trkpt><trkpt lat="53.779448643594144" lon="11.050026308356756"><ele>26.0</ele><time>2026-04-01T14:37:32.999Z</time></trkpt><trkpt lat="53.779449348472326" lon="11.050134130117113"><ele>26.0</ele><time>2026-04-01T14:37:33.999Z</time></trkpt><trkpt lat="53.77942015568313" lon="11.050248782360502"><ele>25.999999999999996</ele><time>2026-04-01T14:37:34.999Z</time></trkpt><trkpt lat="53.779371658346925" lon="11.050371770820915"><ele>26.0</ele><time>2026-04-01T14:37:35.999Z</time></trkpt><trkpt lat="53.77932371366087" lon="11.05051226542232"><ele>26.0</ele><time>2026-04-01T14:37:36.999Z</time></trkpt><trkpt lat="53.77927468901916" lon="11.05067413656274"><ele>26.0</ele><time>2026-04-01T14:37:37.999Z</time></trkpt><trkpt lat="53.779225351259036" lon="11.050846098625914"><ele>26.0</ele><time>2026-04-01T14:37:38.999Z</time></trkpt><trkpt lat="53.779175003883516" lon="11.051023427670648"><ele>26.0</ele><time>2026-04-01T14:37:39.999Z</time></trkpt><trkpt lat="53.779122460759815" lon="11.0511854025153"><ele>26.0</ele><time>2026-04-01T14:37:40.999Z</time></trkpt><trkpt lat="53.77907355279681" lon="11.051336145091824"><ele>26.0</ele><time>2026-04-01T14:37:41.999Z</time></trkpt><trkpt lat="53.77903126004032" lon="11.051493427131907"><ele>26.0</ele><time>2026-04-01T14:37:42.999Z</time></trkpt><trkpt lat="53.778984534604604" lon="11.051646537786628"><ele>26.0</ele><time>2026-04-01T14:37:43.999Z</time></trkpt><trkpt lat="53.77893542352649" lon="11.051804868596472"><ele>26.0</ele><time>2026-04-01T14:37:45Z</time></trkpt><trkpt lat="53.77888955218583" lon="11.051972518856909"><ele>26.0</ele><time>2026-04-01T14:37:46Z</time></trkpt><trkpt lat="53.778838710264644" lon="11.052135639062659"><ele>25.8</ele><time>2026-04-01T14:37:47Z</time></trkpt><trkpt lat="53.77878947177374" lon="11.052307125917919"><ele>25.6</ele><time>2026-04-01T14:37:48Z</time></trkpt><trkpt lat="53.77874916065305" lon="11.052479258093856"><ele>25.4</ele><time>2026-04-01T14:37:49Z</time></trkpt><trkpt lat="53.778703414740235" lon="11.052629508164333"><ele>25.2</ele><time>2026-04-01T14:37:50Z</time></trkpt><trkpt lat="53.77864985722083" lon="11.052770785686238"><ele>25.0</ele><time>2026-04-01T14:37:51Z</time></trkpt><trkpt lat="53.77859755331141" lon="11.052915014491115"><ele>25.0</ele><time>2026-04-01T14:37:52Z</time></trkpt><trkpt lat="53.77854456711424" lon="11.053061117157343"><ele>25.0</ele><time>2026-04-01T14:37:53Z</time></trkpt><trkpt lat="53.77849868498967" lon="11.05321649843724"><ele>25.0</ele><time>2026-04-01T14:37:54Z</time></trkpt><trkpt lat="53.778451032203314" lon="11.053380022156084"><ele>25.0</ele><time>2026-04-01T14:37:55Z</time></trkpt><trkpt lat="53.77839976456276" lon="11.053541912437863"><ele>25.0</ele><time>2026-04-01T14:37:56Z</time></trkpt><trkpt lat="53.77835560512573" lon="11.053714869632671"><ele>25.0</ele><time>2026-04-01T14:37:57Z</time></trkpt><trkpt lat="53.778308215009616" lon="11.05388619180717"><ele>25.0</ele><time>2026-04-01T14:37:58Z</time></trkpt><trkpt lat="53.778270777376136" lon="11.054064046584479"><ele>25.0</ele><time>2026-04-01T14:37:59Z</time></trkpt><trkpt lat="53.77823204667664" lon="11.054234454515104"><ele>25.0</ele><time>2026-04-01T14:38:00Z</time></trkpt><trkpt lat="53.778198090335" lon="11.054407594242"><ele>25.0</ele><time>2026-04-01T14:38:01Z</time></trkpt><trkpt lat="53.77816275442952" lon="11.054580552871474"><ele>24.8</ele><time>2026-04-01T14:38:02Z</time></trkpt><trkpt lat="53.77812854411907" lon="11.054757499010783"><ele>24.6</ele><time>2026-04-01T14:38:03Z</time></trkpt><trkpt lat="53.778090638424615" lon="11.05492916439523"><ele>24.4</ele><time>2026-04-01T14:38:04Z</time></trkpt><trkpt lat="53.77806004798887" lon="11.055098526644828"><ele>24.2</ele><time>2026-04-01T14:38:05Z</time></trkpt><trkpt lat="53.77803490204368" lon="11.055265275341608"><ele>24.0</ele><time>2026-04-01T14:38:06Z</time></trkpt><trkpt lat="53.77801009676875" lon="11.055421408298852"><ele>24.333333333333332</ele><time>2026-04-01T14:38:07Z</time></trkpt><trkpt lat="53.777992909510374" lon="11.055568882891539"><ele>24.666666666666664</ele><time>2026-04-01T14:38:08Z</time></trkpt><trkpt lat="53.77797869857303" lon="11.055712013172954"><ele>25.0</ele><time>2026-04-01T14:38:09Z</time></trkpt><trkpt lat="53.77796888216447" lon="11.055857712133983"><ele>25.333333333333332</ele><time>2026-04-01T14:38:10Z</time></trkpt><trkpt lat="53.777972466056994" lon="11.056001844421104"><ele>25.666666666666664</ele><time>2026-04-01T14:38:11Z</time></trkpt><trkpt lat="53.777973016864664" lon="11.056148264430115"><ele>26.0</ele><time>2026-04-01T14:38:12Z</time></trkpt><trkpt lat="53.77797597590186" lon="11.05629886328208"><ele>26.6</ele><time>2026-04-01T14:38:13Z</time></trkpt><trkpt lat="53.777984013311034" lon="11.056452495924072"><ele>27.200000000000003</ele><time>2026-04-01T14:38:14Z</time></trkpt><trkpt lat="53.77800265069891" lon="11.05660028563729"><ele>27.799999999999997</ele><time>2026-04-01T14:38:15Z</time></trkpt><trkpt lat="53.77803074231253" lon="11.056752061694663"><ele>28.4</ele><time>2026-04-01T14:38:16Z</time></trkpt><trkpt lat="53.778062985654216" lon="11.056907225101629"><ele>29.0</ele><time>2026-04-01T14:38:17Z</time></trkpt><trkpt lat="53.7780953952244" lon="11.05706007846187"><ele>29.333333333333332</ele><time>2026-04-01T14:38:18Z</time></trkpt><trkpt lat="53.77812510205313" lon="11.057210559655855"><ele>29.666666666666664</ele><time>2026-04-01T14:38:19Z</time></trkpt><trkpt lat="53.778152905914965" lon="11.057355653622091"><ele>30.0</ele><time>2026-04-01T14:38:20Z</time></trkpt><trkpt lat="53.77817918841437" lon="11.057495656492664"><ele>30.333333333333336</ele><time>2026-04-01T14:38:21Z</time></trkpt><trkpt lat="53.77820172786912" lon="11.057640802363924"><ele>30.666666666666668</ele><time>2026-04-01T14:38:22Z</time></trkpt><trkpt lat="53.778223511637634" lon="11.057788771688195"><ele>31.0</ele><time>2026-04-01T14:38:23Z</time></trkpt><trkpt lat="53.77823469497571" lon="11.057947112372494"><ele>31.333333333333336</ele><time>2026-04-01T14:38:24Z</time></trkpt><trkpt lat="53.77824955093302" lon="11.058102440126424"><ele>31.666666666666668</ele><time>2026-04-01T14:38:25Z</time></trkpt><trkpt lat="53.77824506881848" lon="11.058247114774577"><ele>32.0</ele><time>2026-04-01T14:38:26Z</time></trkpt><trkpt lat="53.77822880067734" lon="11.0583898177551"><ele>32.333333333333336</ele><time>2026-04-01T14:38:27Z</time></trkpt><trkpt lat="53.778199225505105" lon="11.058532408940195"><ele>32.666666666666664</ele><time>2026-04-01T14:38:28Z</time></trkpt><trkpt lat="53.77816107639771" lon="11.05867692335973"><ele>33.0</ele><time>2026-04-01T14:38:29Z</time></trkpt><trkpt lat="53.77811352788518" lon="11.05882050079935"><ele>33.0</ele><time>2026-04-01T14:38:30Z</time></trkpt><trkpt lat="53.77805963319819" lon="11.058974160135667"><ele>33.0</ele><time>2026-04-01T14:38:31Z</time></trkpt><trkpt lat="53.7779887082143" lon="11.059115239501452"><ele>33.0</ele><time>2026-04-01T14:38:32Z</time></trkpt><trkpt lat="53.77792172187459" lon="11.05926323644"><ele>33.0</ele><time>2026-04-01T14:38:33Z</time></trkpt><trkpt lat="53.777860149295286" lon="11.059418063913016"><ele>33.0</ele><time>2026-04-01T14:38:34Z</time></trkpt><trkpt lat="53.77779693331396" lon="11.05957455933422"><ele>32.6</ele><time>2026-04-01T14:38:35Z</time></trkpt><trkpt lat="53.777731479600824" lon="11.059727615567969"><ele>32.199999999999996</ele><time>2026-04-01T14:38:36Z</time></trkpt><trkpt lat="53.77768019598055" lon="11.059891194739384"><ele>31.8</ele><time>2026-04-01T14:38:37Z</time></trkpt><trkpt lat="53.777621057457196" lon="11.060053523593934"><ele>31.4</ele><time>2026-04-01T14:38:38Z</time></trkpt><trkpt lat="53.777555525436036" lon="11.060213693549166"><ele>31.0</ele><time>2026-04-01T14:38:39Z</time></trkpt><trkpt lat="53.77748629158023" lon="11.06037389836723"><ele>30.75</ele><time>2026-04-01T14:38:40Z</time></trkpt><trkpt lat="53.77741892119145" lon="11.060541751247591"><ele>30.5</ele><time>2026-04-01T14:38:41Z</time></trkpt><trkpt lat="53.777342227762205" lon="11.06070714994045"><ele>30.25</ele><time>2026-04-01T14:38:42Z</time></trkpt><trkpt lat="53.77725285739725" lon="11.060866429390204"><ele>30.0</ele><time>2026-04-01T14:38:43Z</time></trkpt><trkpt lat="53.77716592929462" lon="11.061034684563728"><ele>30.0</ele><time>2026-04-01T14:38:44Z</time></trkpt><trkpt lat="53.777081707390394" lon="11.06121200337331"><ele>30.0</ele><time>2026-04-01T14:38:45Z</time></trkpt><trkpt lat="53.77699500758226" lon="11.061416376619041"><ele>30.0</ele><time>2026-04-01T14:38:46Z</time></trkpt><trkpt lat="53.77688193400599" lon="11.061582999962932"><ele>30.0</ele><time>2026-04-01T14:38:47Z</time></trkpt><trkpt lat="53.776764974539994" lon="11.06176212187967"><ele>30.0</ele><time>2026-04-01T14:38:48Z</time></trkpt><trkpt lat="53.77663391473288" lon="11.061931434851195"><ele>30.0</ele><time>2026-04-01T14:38:48.999Z</time></trkpt><trkpt lat="53.77649676168883" lon="11.062107932858185"><ele>30.0</ele><time>2026-04-01T14:38:49.999Z</time></trkpt><trkpt lat="53.77635296460206" lon="11.06228099334784"><ele>30.0</ele><time>2026-04-01T14:38:50.999Z</time></trkpt><trkpt lat="53.776221235971484" lon="11.062483521008051"><ele>30.0</ele><time>2026-04-01T14:38:51.999Z</time></trkpt><trkpt lat="53.77607907677185" lon="11.062675902350197"><ele>30.0</ele><time>2026-04-01T14:38:52.999Z</time></trkpt><trkpt lat="53.77593610019536" lon="11.062874753838859"><ele>29.333333333333336</ele><time>2026-04-01T14:38:53.999Z</time></trkpt><trkpt lat="53.775811138275316" lon="11.063064548714369"><ele>28.666666666666668</ele><time>2026-04-01T14:38:54.999Z</time></trkpt><trkpt lat="53.77567736481662" lon="11.06327764134113"><ele>28.0</ele><time>2026-04-01T14:38:55.999Z</time></trkpt><trkpt lat="53.7755329193653" lon="11.063489461895053"><ele>28.0</ele><time>2026-04-01T14:38:56.999Z</time></trkpt><trkpt lat="53.77538801898923" lon="11.063719457660099"><ele>28.0</ele><time>2026-04-01T14:38:57.999Z</time></trkpt><trkpt lat="53.77523678633851" lon="11.063922406728942"><ele>28.0</ele><time>2026-04-01T14:38:58.999Z</time></trkpt><trkpt lat="53.77511719951346" lon="11.064154136536356"><ele>28.0</ele><time>2026-04-01T14:38:59.999Z</time></trkpt><trkpt lat="53.77499604432921" lon="11.064374163663816"><ele>28.0</ele><time>2026-04-01T14:39:00.999Z</time></trkpt><trkpt lat="53.77492237304506" lon="11.064698484227778"><ele>28.0</ele><time>2026-04-01T14:39:01.999Z</time></trkpt><trkpt lat="53.77481212141158" lon="11.064959180336475"><ele>27.333333333333336</ele><time>2026-04-01T14:39:02.999Z</time></trkpt><trkpt lat="53.77470298397455" lon="11.065255507166572"><ele>26.666666666666664</ele><time>2026-04-01T14:39:03.999Z</time></trkpt><trkpt lat="53.774598236192155" lon="11.065541680252226"><ele>26.0</ele><time>2026-04-01T14:39:04.999Z</time></trkpt><trkpt lat="53.774495361477975" lon="11.065811704076587"><ele>26.0</ele><time>2026-04-01T14:39:05.999Z</time></trkpt><trkpt lat="53.77439043893178" lon="11.066081923035023"><ele>26.0</ele><time>2026-04-01T14:39:06.999Z</time></trkpt><trkpt lat="53.77431614185086" lon="11.066367725852137"><ele>26.0</ele><time>2026-04-01T14:39:07.999Z</time></trkpt><trkpt lat="53.774219550060245" lon="11.066603376541003"><ele>26.0</ele><time>2026-04-01T14:39:08.999Z</time></trkpt><trkpt lat="53.774109073829194" lon="11.066839171334518"><ele>26.0</ele><time>2026-04-01T14:39:09.999Z</time></trkpt><trkpt lat="53.77401679981745" lon="11.067107386120083"><ele>26.0</ele><time>2026-04-01T14:39:10.999Z</time></trkpt><trkpt lat="53.77394781075372" lon="11.067325164780081"><ele>26.0</ele><time>2026-04-01T14:39:11.999Z</time></trkpt><trkpt lat="53.7738665828985" lon="11.067607536615538"><ele>26.0</ele><time>2026-04-01T14:39:12.999Z</time></trkpt><trkpt lat="53.77380749912003" lon="11.067871901996634"><ele>26.0</ele><time>2026-04-01T14:39:13.999Z</time></trkpt><trkpt lat="53.77376083210952" lon="11.06815251921473"><ele>26.333333333333332</ele><time>2026-04-01T14:39:14.999Z</time></trkpt><trkpt lat="53.77369278828214" lon="11.068463678864807"><ele>26.666666666666664</ele><time>2026-04-01T14:39:15.999Z</time></trkpt><trkpt lat="53.773647794028285" lon="11.068805917992306"><ele>27.0</ele><time>2026-04-01T14:39:16.999Z</time></trkpt><trkpt lat="53.77362059507554" lon="11.069143113581923"><ele>28.333333333333336</ele><time>2026-04-01T14:39:17.999Z</time></trkpt><trkpt lat="53.773591415160276" lon="11.069491357437716"><ele>29.666666666666668</ele><time>2026-04-01T14:39:18.999Z</time></trkpt><trkpt lat="53.773578919195835" lon="11.069788617784853"><ele>31.0</ele><time>2026-04-01T14:39:19.999Z</time></trkpt><trkpt lat="53.77353732931759" lon="11.070089270623638"><ele>30.333333333333336</ele><time>2026-04-01T14:39:20.999Z</time></trkpt><trkpt lat="53.7735018939907" lon="11.070405965163623"><ele>29.666666666666664</ele><time>2026-04-01T14:39:21.999Z</time></trkpt><trkpt lat="53.77347154124776" lon="11.070745431585095"><ele>29.0</ele><time>2026-04-01T14:39:22.999Z</time></trkpt><trkpt lat="53.773461468743825" lon="11.071039515176748"><ele>29.0</ele><time>2026-04-01T14:39:23.999Z</time></trkpt><trkpt lat="53.77340607699925" lon="11.071330322906338"><ele>29.0</ele><time>2026-04-01T14:39:24.999Z</time></trkpt><trkpt lat="53.77338415521495" lon="11.071655128084165"><ele>29.0</ele><time>2026-04-01T14:39:25.999Z</time></trkpt><trkpt lat="53.77332081614364" lon="11.07199961207598"><ele>28.333333333333332</ele><time>2026-04-01T14:39:26.999Z</time></trkpt><trkpt lat="53.77329743297466" lon="11.072299593404804"><ele>27.666666666666664</ele><time>2026-04-01T14:39:27.999Z</time></trkpt><trkpt lat="53.77326899707047" lon="11.072631384433388"><ele>27.0</ele><time>2026-04-01T14:39:28.999Z</time></trkpt><trkpt lat="53.773224000859464" lon="11.072931046314824"><ele>26.333333333333336</ele><time>2026-04-01T14:39:29.999Z</time></trkpt><trkpt lat="53.77320476725579" lon="11.073260604012539"><ele>25.666666666666668</ele><time>2026-04-01T14:39:30.999Z</time></trkpt><trkpt lat="53.77317186926822" lon="11.073585885710045"><ele>25.0</ele><time>2026-04-01T14:39:31.999Z</time></trkpt><trkpt lat="53.77313859100388" lon="11.07391955153415"><ele>24.666666666666668</ele><time>2026-04-01T14:39:32.999Z</time></trkpt><trkpt lat="53.77310572957807" lon="11.074250423052446"><ele>24.333333333333336</ele><time>2026-04-01T14:39:33.999Z</time></trkpt><trkpt lat="53.77307380857297" lon="11.074581512890694"><ele>24.0</ele><time>2026-04-01T14:39:34.999Z</time></trkpt><trkpt lat="53.77304554188878" lon="11.07488083542309"><ele>23.333333333333332</ele><time>2026-04-01T14:39:35.999Z</time></trkpt><trkpt lat="53.77301495162499" lon="11.075204762908463"><ele>22.666666666666664</ele><time>2026-04-01T14:39:36.999Z</time></trkpt><trkpt lat="53.77298406853304" lon="11.075512443460555"><ele>22.0</ele><time>2026-04-01T14:39:37.999Z</time></trkpt><trkpt lat="53.77295329590415" lon="11.075810813493382"><ele>23.333333333333332</ele><time>2026-04-01T14:39:38.999Z</time></trkpt><trkpt lat="53.77292383365351" lon="11.076096478193305"><ele>24.666666666666664</ele><time>2026-04-01T14:39:39.999Z</time></trkpt><trkpt lat="53.77289415233951" lon="11.076388798405896"><ele>26.0</ele><time>2026-04-01T14:39:40.999Z</time></trkpt><trkpt lat="53.77286508881322" lon="11.076681817116741"><ele>27.333333333333332</ele><time>2026-04-01T14:39:41.999Z</time></trkpt><trkpt lat="53.77283734837402" lon="11.076961496374672"><ele>28.666666666666664</ele><time>2026-04-01T14:39:42.999Z</time></trkpt><trkpt lat="53.772809755837926" lon="11.077238821749667"><ele>30.0</ele><time>2026-04-01T14:39:43.999Z</time></trkpt><trkpt lat="53.772778670731874" lon="11.077526285921229"><ele>31.333333333333336</ele><time>2026-04-01T14:39:44.999Z</time></trkpt><trkpt lat="53.772746440914254" lon="11.077815548778863"><ele>32.66666666666667</ele><time>2026-04-01T14:39:45.999Z</time></trkpt><trkpt lat="53.77270882498848" lon="11.078105994596516"><ele>34.0</ele><time>2026-04-01T14:39:46.999Z</time></trkpt><trkpt lat="53.77266752180499" lon="11.078380691584634"><ele>34.0</ele><time>2026-04-01T14:39:47.999Z</time></trkpt><trkpt lat="53.77264469397948" lon="11.078596730558147"><ele>34.0</ele><time>2026-04-01T14:39:48.999Z</time></trkpt><trkpt lat="53.772621125040196" lon="11.078844792780822"><ele>34.0</ele><time>2026-04-01T14:39:49.999Z</time></trkpt><trkpt lat="53.77257412402738" lon="11.079098271716953"><ele>34.0</ele><time>2026-04-01T14:39:50.999Z</time></trkpt><trkpt lat="53.77249715984291" lon="11.079338045476259"><ele>35.333333333333336</ele><time>2026-04-01T14:39:51.999Z</time></trkpt><trkpt lat="53.77241014437736" lon="11.079609315661903"><ele>36.666666666666664</ele><time>2026-04-01T14:39:52.999Z</time></trkpt><trkpt lat="53.77233624613573" lon="11.079864974428109"><ele>38.0</ele><time>2026-04-01T14:39:53.999Z</time></trkpt><trkpt lat="53.772245421272046" lon="11.080118269938422"><ele>38.0</ele><time>2026-04-01T14:39:54.999Z</time></trkpt><trkpt lat="53.772170599841765" lon="11.080332592820122"><ele>38.0</ele><time>2026-04-01T14:39:55.999Z</time></trkpt><trkpt lat="53.77209420900785" lon="11.080632206469478"><ele>38.0</ele><time>2026-04-01T14:39:56.999Z</time></trkpt><trkpt lat="53.77197598614443" lon="11.081005668879033"><ele>37.666666666666664</ele><time>2026-04-01T14:39:57.999Z</time></trkpt><trkpt lat="53.77188847385105" lon="11.081277085496595"><ele>37.333333333333336</ele><time>2026-04-01T14:39:58.999Z</time></trkpt><trkpt lat="53.771792989285025" lon="11.08157282998488"><ele>37.0</ele><time>2026-04-01T14:39:59.999Z</time></trkpt><trkpt lat="53.7717060055962" lon="11.08184195024015"><ele>35.333333333333336</ele><time>2026-04-01T14:40:00.999Z</time></trkpt><trkpt lat="53.77161628997094" lon="11.082138673864064"><ele>33.666666666666664</ele><time>2026-04-01T14:40:01.999Z</time></trkpt><trkpt lat="53.77152122100897" lon="11.0824458227564"><ele>32.0</ele><time>2026-04-01T14:40:02.999Z</time></trkpt><trkpt lat="53.771427331770845" lon="11.082743019354538"><ele>31.666666666666664</ele><time>2026-04-01T14:40:03.999Z</time></trkpt><trkpt lat="53.771324119988165" lon="11.08304277639469"><ele>31.333333333333336</ele><time>2026-04-01T14:40:04.999Z</time></trkpt><trkpt lat="53.77122866202309" lon="11.083323941405487"><ele>31.0</ele><time>2026-04-01T14:40:05.999Z</time></trkpt><trkpt lat="53.77113467030142" lon="11.083588801662307"><ele>31.333333333333336</ele><time>2026-04-01T14:40:06.999Z</time></trkpt><trkpt lat="53.77098668966652" lon="11.083766007504959"><ele>31.666666666666664</ele><time>2026-04-01T14:40:07.999Z</time></trkpt><trkpt lat="53.77084736809552" lon="11.083947184206721"><ele>32.0</ele><time>2026-04-01T14:40:08.999Z</time></trkpt><trkpt lat="53.77069285513017" lon="11.08413534037367"><ele>32.0</ele><time>2026-04-01T14:40:09.999Z</time></trkpt><trkpt lat="53.77053346656662" lon="11.084295169441253"><ele>32.0</ele><time>2026-04-01T14:40:10.999Z</time></trkpt><trkpt lat="53.77038859837399" lon="11.08448084204379"><ele>32.0</ele><time>2026-04-01T14:40:11.999Z</time></trkpt><trkpt lat="53.770248477156564" lon="11.084662590318457"><ele>32.0</ele><time>2026-04-01T14:40:12.999Z</time></trkpt><trkpt lat="53.770090087226635" lon="11.084812878460513"><ele>32.0</ele><time>2026-04-01T14:40:13.999Z</time></trkpt><trkpt lat="53.76993155659999" lon="11.084964795508798"><ele>32.0</ele><time>2026-04-01T14:40:14.999Z</time></trkpt><trkpt lat="53.76979130276697" lon="11.085143222654866"><ele>32.33333333333333</ele><time>2026-04-01T14:40:15.999Z</time></trkpt><trkpt lat="53.76965418824376" lon="11.085315724414478"><ele>32.666666666666664</ele><time>2026-04-01T14:40:16.999Z</time></trkpt><trkpt lat="53.76949506269216" lon="11.085468288388025"><ele>33.0</ele><time>2026-04-01T14:40:17.999Z</time></trkpt><trkpt lat="53.76935671062132" lon="11.085647493881387"><ele>34.0</ele><time>2026-04-01T14:40:18.999Z</time></trkpt><trkpt lat="53.76921889034322" lon="11.085808655625813"><ele>35.0</ele><time>2026-04-01T14:40:19.999Z</time></trkpt><trkpt lat="53.769078856476625" lon="11.085970708761003"><ele>36.0</ele><time>2026-04-01T14:40:20.999Z</time></trkpt><trkpt lat="53.76893241610101" lon="11.086131325359283"><ele>36.0</ele><time>2026-04-01T14:40:21.999Z</time></trkpt><trkpt lat="53.768791198402255" lon="11.086310505190411"><ele>36.0</ele><time>2026-04-01T14:40:22.999Z</time></trkpt><trkpt lat="53.76865438523708" lon="11.086488066230652"><ele>36.0</ele><time>2026-04-01T14:40:23.999Z</time></trkpt><trkpt lat="53.76850212055599" lon="11.086648385173605"><ele>36.333333333333336</ele><time>2026-04-01T14:40:24.999Z</time></trkpt><trkpt lat="53.76835254381664" lon="11.086829790207624"><ele>36.66666666666667</ele><time>2026-04-01T14:40:25.999Z</time></trkpt><trkpt lat="53.768223754534915" lon="11.087023755849954"><ele>37.0</ele><time>2026-04-01T14:40:26.999Z</time></trkpt><trkpt lat="53.76808422661198" lon="11.087189481101799"><ele>37.0</ele><time>2026-04-01T14:40:27.999Z</time></trkpt><trkpt lat="53.76796416821841" lon="11.087369094718037"><ele>37.0</ele><time>2026-04-01T14:40:28.999Z</time></trkpt><trkpt lat="53.767853536176666" lon="11.08752128559994"><ele>37.0</ele><time>2026-04-01T14:40:29.999Z</time></trkpt><trkpt lat="53.76770816904096" lon="11.087651524648708"><ele>37.25</ele><time>2026-04-01T14:40:30.999Z</time></trkpt><trkpt lat="53.76758939834207" lon="11.087817710854829"><ele>37.5</ele><time>2026-04-01T14:40:31.999Z</time></trkpt><trkpt lat="53.76746583388284" lon="11.08796640230729"><ele>37.75</ele><time>2026-04-01T14:40:32.999Z</time></trkpt><trkpt lat="53.76736179581357" lon="11.08809732735925"><ele>38.0</ele><time>2026-04-01T14:40:33.999Z</time></trkpt><trkpt lat="53.767263523522146" lon="11.088227203453043"><ele>38.0</ele><time>2026-04-01T14:40:34.999Z</time></trkpt><trkpt lat="53.767169162759636" lon="11.088363806119553"><ele>38.0</ele><time>2026-04-01T14:40:35.999Z</time></trkpt><trkpt lat="53.76708551493003" lon="11.08852358916062"><ele>38.0</ele><time>2026-04-01T14:40:36.999Z</time></trkpt><trkpt lat="53.76700219674419" lon="11.088739076812441"><ele>38.0</ele><time>2026-04-01T14:40:37.999Z</time></trkpt><trkpt lat="53.766941507380835" lon="11.088923910065333"><ele>37.75</ele><time>2026-04-01T14:40:38.999Z</time></trkpt><trkpt lat="53.76690978786658" lon="11.0891493555817"><ele>37.5</ele><time>2026-04-01T14:40:39.999Z</time></trkpt><trkpt lat="53.766881477338465" lon="11.089371623919915"><ele>37.25</ele><time>2026-04-01T14:40:40.999Z</time></trkpt><trkpt lat="53.76685754032509" lon="11.089608981477287"><ele>37.0</ele><time>2026-04-01T14:40:41.999Z</time></trkpt><trkpt lat="53.76683651805333" lon="11.089858151334985"><ele>38.333333333333336</ele><time>2026-04-01T14:40:42.999Z</time></trkpt><trkpt lat="53.76680093044459" lon="11.09013039374458"><ele>39.666666666666664</ele><time>2026-04-01T14:40:43.999Z</time></trkpt><trkpt lat="53.76679017976813" lon="11.09039155906566"><ele>41.0</ele><time>2026-04-01T14:40:44.999Z</time></trkpt><trkpt lat="53.766745366541656" lon="11.090627281569569"><ele>41.25</ele><time>2026-04-01T14:40:45.999Z</time></trkpt><trkpt lat="53.76673201078208" lon="11.090873376901822"><ele>41.5</ele><time>2026-04-01T14:40:46.999Z</time></trkpt><trkpt lat="53.766707432090975" lon="11.091119236943275"><ele>41.75</ele><time>2026-04-01T14:40:47.999Z</time></trkpt><trkpt lat="53.766698008534874" lon="11.091348831264947"><ele>42.0</ele><time>2026-04-01T14:40:48.999Z</time></trkpt><trkpt lat="53.766686001721695" lon="11.091568166154108"><ele>42.0</ele><time>2026-04-01T14:40:49.999Z</time></trkpt><trkpt lat="53.76666011265093" lon="11.091789298794557"><ele>42.0</ele><time>2026-04-01T14:40:50.999Z</time></trkpt><trkpt lat="53.766657558102985" lon="11.09199972866347"><ele>42.0</ele><time>2026-04-01T14:40:51.999Z</time></trkpt><trkpt lat="53.76665376362664" lon="11.092203047506905"><ele>42.0</ele><time>2026-04-01T14:40:52.999Z</time></trkpt><trkpt lat="53.76666030699386" lon="11.092384990952775"><ele>42.25</ele><time>2026-04-01T14:40:53.999Z</time></trkpt><trkpt lat="53.76666717453408" lon="11.092545055879825"><ele>42.5</ele><time>2026-04-01T14:40:54.999Z</time></trkpt><trkpt lat="53.76661724012766" lon="11.09273067124878"><ele>42.75</ele><time>2026-04-01T14:40:55.999Z</time></trkpt><trkpt lat="53.76656785716422" lon="11.092925883541845"><ele>43.0</ele><time>2026-04-01T14:40:56.999Z</time></trkpt><trkpt lat="53.766480773207455" lon="11.093090754348617"><ele>43.0</ele><time>2026-04-01T14:40:57.999Z</time></trkpt><trkpt lat="53.766377258475735" lon="11.093252481389408"><ele>43.0</ele><time>2026-04-01T14:40:58.999Z</time></trkpt><trkpt lat="53.76624754736219" lon="11.093398322205264"><ele>43.0</ele><time>2026-04-01T14:40:59.999Z</time></trkpt><trkpt lat="53.766124056071405" lon="11.0935349577284"><ele>43.0</ele><time>2026-04-01T14:41:00.999Z</time></trkpt><trkpt lat="53.76600124167456" lon="11.093688046896615"><ele>43.5</ele><time>2026-04-01T14:41:01.999Z</time></trkpt><trkpt lat="53.765908343455465" lon="11.093828937498833"><ele>44.0</ele><time>2026-04-01T14:41:02.999Z</time></trkpt><trkpt lat="53.76582737806187" lon="11.09399851198941"><ele>44.5</ele><time>2026-04-01T14:41:03.999Z</time></trkpt><trkpt lat="53.76572832998833" lon="11.09412115662678"><ele>45.0</ele><time>2026-04-01T14:41:04.999Z</time></trkpt><trkpt lat="53.76563851162582" lon="11.094230260732607"><ele>45.0</ele><time>2026-04-01T14:41:05.999Z</time></trkpt><trkpt lat="53.76557595193206" lon="11.094377669075076"><ele>45.0</ele><time>2026-04-01T14:41:06.999Z</time></trkpt><trkpt lat="53.76553338342467" lon="11.09447563001456"><ele>45.0</ele><time>2026-04-01T14:41:07.999Z</time></trkpt><trkpt lat="53.765485256816454" lon="11.09464260537118"><ele>45.0</ele><time>2026-04-01T14:41:08.999Z</time></trkpt><trkpt lat="53.76545415589568" lon="11.094826811603976"><ele>45.0</ele><time>2026-04-01T14:41:09.999Z</time></trkpt><trkpt lat="53.76544405928254" lon="11.094959623993022"><ele>45.2</ele><time>2026-04-01T14:41:10.999Z</time></trkpt><trkpt lat="53.765339659561384" lon="11.095042646753063"><ele>45.4</ele><time>2026-04-01T14:41:11.999Z</time></trkpt><trkpt lat="53.76527087566478" lon="11.09515417284586"><ele>45.599999999999994</ele><time>2026-04-01T14:41:12.999Z</time></trkpt><trkpt lat="53.76519214425261" lon="11.09524877275194"><ele>45.8</ele><time>2026-04-01T14:41:13.999Z</time></trkpt><trkpt lat="53.76511900372977" lon="11.095334262717284"><ele>46.0</ele><time>2026-04-01T14:41:14.999Z</time></trkpt><trkpt lat="53.76504844836947" lon="11.095416732530996"><ele>46.199999999999996</ele><time>2026-04-01T14:41:15.999Z</time></trkpt><trkpt lat="53.76496225388865" lon="11.095502726177838"><ele>46.4</ele><time>2026-04-01T14:41:16.999Z</time></trkpt><trkpt lat="53.76487899424683" lon="11.09558214791978"><ele>46.6</ele><time>2026-04-01T14:41:17.999Z</time></trkpt><trkpt lat="53.76479070959411" lon="11.095682688666132"><ele>46.8</ele><time>2026-04-01T14:41:18.999Z</time></trkpt><trkpt lat="53.76470385686464" lon="11.095781598733945"><ele>47.0</ele><time>2026-04-01T14:41:19.999Z</time></trkpt><trkpt lat="53.764626671251705" lon="11.095869499644127"><ele>47.33333333333333</ele><time>2026-04-01T14:41:20.999Z</time></trkpt><trkpt lat="53.76456487279383" lon="11.095940924256247"><ele>47.666666666666664</ele><time>2026-04-01T14:41:21.999Z</time></trkpt><trkpt lat="53.764510312494984" lon="11.096002282931162"><ele>48.0</ele><time>2026-04-01T14:41:22.999Z</time></trkpt><trkpt lat="53.764469159517226" lon="11.096089903491247"><ele>48.33333333333333</ele><time>2026-04-01T14:41:23.999Z</time></trkpt><trkpt lat="53.76443374416108" lon="11.0961994373998"><ele>48.666666666666664</ele><time>2026-04-01T14:41:24.999Z</time></trkpt><trkpt lat="53.764545339094965" lon="11.096266175858922"><ele>49.0</ele><time>2026-04-01T14:41:25.999Z</time></trkpt><trkpt lat="53.76460949543365" lon="11.096320572759168"><ele>49.0</ele><time>2026-04-01T14:41:26.999Z</time></trkpt><trkpt lat="53.76470369385219" lon="11.096346820209916"><ele>49.0</ele><time>2026-04-01T14:41:27.999Z</time></trkpt><trkpt lat="53.764821320484614" lon="11.096369949830867"><ele>49.0</ele><time>2026-04-01T14:41:28.999Z</time></trkpt><trkpt lat="53.76495739634229" lon="11.09638779211512"><ele>49.0</ele><time>2026-04-01T14:41:29.999Z</time></trkpt><trkpt lat="53.76509858908025" lon="11.096363133853746"><ele>48.6</ele><time>2026-04-01T14:41:30.999Z</time></trkpt><trkpt lat="53.765196789182525" lon="11.096387928146772"><ele>48.2</ele><time>2026-04-01T14:41:31.999Z</time></trkpt><trkpt lat="53.76528475805769" lon="11.096425771157406"><ele>47.800000000000004</ele><time>2026-04-01T14:41:32.999Z</time></trkpt><trkpt lat="53.76536835238437" lon="11.096689500700247"><ele>47.400000000000006</ele><time>2026-04-01T14:41:34.999Z</time></trkpt><trkpt lat="53.765382049849066" lon="11.096821419449515"><ele>47.0</ele><time>2026-04-01T14:41:35.999Z</time></trkpt><trkpt lat="53.765422773567046" lon="11.096966861072122"><ele>47.0</ele><time>2026-04-01T14:41:36.999Z</time></trkpt><trkpt lat="53.76544699117327" lon="11.097102225929971"><ele>47.0</ele><time>2026-04-01T14:41:37.999Z</time></trkpt><trkpt lat="53.765456045373504" lon="11.09725953311536"><ele>47.0</ele><time>2026-04-01T14:41:38.999Z</time></trkpt><trkpt lat="53.76547568215128" lon="11.097409811638498"><ele>47.0</ele><time>2026-04-01T14:41:39.999Z</time></trkpt><trkpt lat="53.765491302556185" lon="11.097528008089458"><ele>47.0</ele><time>2026-04-01T14:41:40.999Z</time></trkpt><trkpt lat="53.765450580534356" lon="11.097612377649565"><ele>47.0</ele><time>2026-04-01T14:41:41.999Z</time></trkpt><trkpt lat="53.76533828819456" lon="11.097640242427538"><ele>47.0</ele><time>2026-04-01T14:41:43.999Z</time></trkpt><trkpt lat="53.76526902392846" lon="11.097623587011899"><ele>47.0</ele><time>2026-04-01T14:41:44.999Z</time></trkpt><trkpt lat="53.76519875318386" lon="11.09759526550362"><ele>47.0</ele><time>2026-04-01T14:41:45.999Z</time></trkpt><trkpt lat="53.76509665009198" lon="11.097597430633924"><ele>47.0</ele><time>2026-04-01T14:41:47.999Z</time></trkpt><trkpt lat="53.764982702234185" lon="11.097569869287357"><ele>47.0</ele><time>2026-04-01T14:41:49.999Z</time></trkpt><trkpt lat="53.76487983011303" lon="11.097576821130753"><ele>47.5</ele><time>2026-04-01T14:41:51.999Z</time></trkpt><trkpt lat="53.76481184698164" lon="11.097571027114913"><ele>48.0</ele><time>2026-04-01T14:41:53.999Z</time></trkpt><trkpt lat="53.764730772614" lon="11.097566678299327"><ele>48.5</ele><time>2026-04-01T14:41:54.999Z</time></trkpt><trkpt lat="53.764663838137686" lon="11.097558951555818"><ele>49.0</ele><time>2026-04-01T14:41:56.999Z</time></trkpt><trkpt lat="53.76463253695865" lon="11.097729095882583"><ele>49.50000000000001</ele><time>2026-04-01T14:41:58.999Z</time></trkpt><trkpt lat="53.76462114750786" lon="11.097890734458696"><ele>50.0</ele><time>2026-04-01T14:42:11.999Z</time></trkpt><trkpt lat="53.76469289437317" lon="11.097790490521115"><ele>50.0</ele><time>2026-04-01T14:42:49Z</time></trkpt><trkpt lat="53.764754037131205" lon="11.097721609071524"><ele>50.0</ele><time>2026-04-01T14:42:53Z</time></trkpt></trkseg></trk></gpx>